AFR344 LFPG-CYUL
Flight info
| Callsign | AFR344 |
|---|---|
| Flight time | 6h 56m |
| Altitude | 32000 |
| Route | ELCOB UT300 SENLO UN502 JSY DCT LIZAD DCT GAPLI/M082F320 DCT DINIM DCT 52N020W 54N030W 5430N04000W 54N050W DCT NEEKO/N0475F320 N624C ANATI DCT DEBUS |
| Aircraft | B77W/H-SDE2E3FGHIJ3J5M1P2RWXYZ/LB1D1 |
Departure
| Time | 2026-05-05 13:52 |
|---|---|
| Airport | Charles de Gaulle International Airport (LFPG) |
Arrival
| Time | 2026-05-05 20:48 |
|---|---|
| Airport | Montreal / Pierre Elliott Trudeau International Airport (CYUL) |
| Time | Latitude | Longitude | Altitude | Speed | Heading |
|---|---|---|---|---|---|
| 2026-05-05 13:08 | 49.00139 | 2.57821 | 359 ft | 0 kts | 355° |
| 2026-05-05 13:36 | 49.00117 | 2.57824 | 368 ft | 4 kts | 354° |
| 2026-05-05 13:37 | 49.00091 | 2.57833 | 360 ft | 4 kts | 329° |
| 2026-05-05 13:37 | 49.00074 | 2.57860 | 365 ft | 4 kts | 289° |
| 2026-05-05 13:37 | 49.00070 | 2.57894 | 363 ft | 1 kts | 265° |
| 2026-05-05 13:42 | 49.00069 | 2.57877 | 359 ft | 4 kts | 265° |
| 2026-05-05 13:42 | 49.00066 | 2.57818 | 364 ft | 8 kts | 265° |
| 2026-05-05 13:43 | 49.00062 | 2.57737 | 365 ft | 8 kts | 265° |
| 2026-05-05 13:43 | 49.00058 | 2.57656 | 366 ft | 8 kts | 265° |
| 2026-05-05 13:43 | 49.00054 | 2.57576 | 359 ft | 8 kts | 265° |
| 2026-05-05 13:43 | 49.00049 | 2.57495 | 365 ft | 8 kts | 264° |
| 2026-05-05 13:44 | 49.00043 | 2.57415 | 361 ft | 8 kts | 264° |
| 2026-05-05 13:44 | 49.00036 | 2.57335 | 359 ft | 8 kts | 256° |
| 2026-05-05 13:44 | 48.99995 | 2.57287 | 366 ft | 8 kts | 206° |
| 2026-05-05 13:44 | 48.99959 | 2.57230 | 366 ft | 8 kts | 247° |
| 2026-05-05 13:45 | 48.99950 | 2.57151 | 364 ft | 8 kts | 263° |
| 2026-05-05 13:45 | 48.99944 | 2.57066 | 366 ft | 9 kts | 264° |
| 2026-05-05 13:45 | 48.99936 | 2.56940 | 359 ft | 15 kts | 265° |
| 2026-05-05 13:45 | 48.99929 | 2.56786 | 365 ft | 15 kts | 265° |
| 2026-05-05 13:46 | 48.99921 | 2.56630 | 361 ft | 15 kts | 265° |
| 2026-05-05 13:46 | 48.99911 | 2.56475 | 364 ft | 15 kts | 264° |
| 2026-05-05 13:46 | 48.99903 | 2.56319 | 362 ft | 15 kts | 266° |
| 2026-05-05 13:46 | 48.99896 | 2.56163 | 359 ft | 15 kts | 265° |
| 2026-05-05 13:47 | 48.99889 | 2.56007 | 359 ft | 15 kts | 269° |
| 2026-05-05 13:47 | 48.99899 | 2.55876 | 362 ft | 10 kts | 275° |
| 2026-05-05 13:47 | 48.99872 | 2.55809 | 365 ft | 8 kts | 204° |
| 2026-05-05 13:47 | 48.99818 | 2.55802 | 365 ft | 8 kts | 180° |
| 2026-05-05 13:48 | 48.99763 | 2.55805 | 364 ft | 8 kts | 176° |
| 2026-05-05 13:48 | 48.99724 | 2.55810 | 361 ft | 0 kts | 174° |
| 2026-05-05 13:50 | 48.99723 | 2.55811 | 361 ft | 1 kts | 174° |
| 2026-05-05 13:50 | 48.99676 | 2.55817 | 366 ft | 9 kts | 176° |
| 2026-05-05 13:50 | 48.99617 | 2.55842 | 366 ft | 9 kts | 132° |
| 2026-05-05 13:50 | 48.99608 | 2.55900 | 361 ft | 0 kts | 89° |
| 2026-05-05 13:51 | 48.99608 | 2.55924 | 358 ft | 11 kts | 89° |
| 2026-05-05 13:51 | 48.99629 | 2.56363 | 369 ft | 75 kts | 85° |
| 2026-05-05 13:52 | 48.99689 | 2.57478 | 361 ft | 135 kts | 85° |
| 2026-05-05 13:52 | 48.99785 | 2.59106 | 484 ft | 163 kts | 81° |
| 2026-05-05 13:52 | 48.99936 | 2.61557 | 1036 ft | 182 kts | 81° |
| 2026-05-05 13:52 | 49.00000 | 2.62839 | 1527 ft | 184 kts | 82° |
| 2026-05-05 13:53 | 49.00095 | 2.64790 | 2298 ft | 187 kts | 84° |
| 2026-05-05 13:53 | 49.00202 | 2.66877 | 2630 ft | 211 kts | 84° |
| 2026-05-05 13:53 | 49.00330 | 2.69244 | 2926 ft | 233 kts | 85° |
| 2026-05-05 13:53 | 49.00458 | 2.71774 | 3474 ft | 243 kts | 84° |
| 2026-05-05 13:54 | 49.00588 | 2.74385 | 4163 ft | 251 kts | 84° |
| 2026-05-05 13:54 | 49.00720 | 2.77069 | 4945 ft | 257 kts | 86° |
| 2026-05-05 13:54 | 49.00644 | 2.79788 | 5679 ft | 261 kts | 97° |
| 2026-05-05 13:54 | 49.00328 | 2.82536 | 6472 ft | 263 kts | 99° |
| 2026-05-05 13:55 | 48.99995 | 2.85287 | 7242 ft | 268 kts | 98° |
| 2026-05-05 13:55 | 48.99674 | 2.88113 | 7965 ft | 269 kts | 98° |
| 2026-05-05 13:55 | 48.99367 | 2.90942 | 8637 ft | 272 kts | 97° |
| 2026-05-05 13:55 | 48.99062 | 2.93801 | 9290 ft | 276 kts | 97° |
| 2026-05-05 13:56 | 48.98723 | 2.96690 | 9869 ft | 278 kts | 105° |
| 2026-05-05 13:56 | 48.97780 | 2.99318 | 10129 ft | 297 kts | 131° |
| 2026-05-05 13:56 | 48.96026 | 3.01184 | 10297 ft | 322 kts | 156° |
| 2026-05-05 13:56 | 48.93788 | 3.01894 | 10470 ft | 347 kts | 178° |
| 2026-05-05 13:57 | 48.91293 | 3.01209 | 10842 ft | 373 kts | 198° |
| 2026-05-05 13:57 | 48.88984 | 2.99270 | 11432 ft | 388 kts | 219° |
| 2026-05-05 13:57 | 48.87317 | 2.96104 | 12257 ft | 393 kts | 244° |
| 2026-05-05 13:57 | 48.86485 | 2.92137 | 13352 ft | 395 kts | 257° |
| 2026-05-05 13:58 | 48.86031 | 2.88020 | 14175 ft | 400 kts | 261° |
| 2026-05-05 13:58 | 48.85664 | 2.83806 | 15054 ft | 406 kts | 261° |
| 2026-05-05 13:58 | 48.85256 | 2.79475 | 15841 ft | 412 kts | 260° |
| 2026-05-05 13:58 | 48.84788 | 2.75162 | 16687 ft | 415 kts | 259° |
| 2026-05-05 13:59 | 48.83721 | 2.66579 | 18330 ft | 421 kts | 257° |
| 2026-05-05 13:59 | 48.83142 | 2.62189 | 18975 ft | 427 kts | 257° |
| 2026-05-05 14:00 | 48.81951 | 2.53260 | 20135 ft | 438 kts | 257° |
| 2026-05-05 14:00 | 48.81345 | 2.48711 | 20798 ft | 441 kts | 257° |
| 2026-05-05 14:00 | 48.80733 | 2.44135 | 21466 ft | 444 kts | 257° |
| 2026-05-05 14:00 | 48.80314 | 2.39500 | 21999 ft | 448 kts | 269° |
| 2026-05-05 14:01 | 48.80843 | 2.34817 | 22451 ft | 454 kts | 288° |
| 2026-05-05 14:01 | 48.81893 | 2.30299 | 22934 ft | 458 kts | 288° |
| 2026-05-05 14:01 | 48.82894 | 2.25678 | 23463 ft | 463 kts | 287° |
| 2026-05-05 14:01 | 48.83857 | 2.20986 | 24064 ft | 465 kts | 286° |
| 2026-05-05 14:02 | 48.84800 | 2.16272 | 24707 ft | 467 kts | 286° |
| 2026-05-05 14:02 | 48.85739 | 2.11546 | 25258 ft | 470 kts | 286° |
| 2026-05-05 14:02 | 48.86686 | 2.06764 | 25769 ft | 474 kts | 286° |
| 2026-05-05 14:02 | 48.87638 | 2.01957 | 26210 ft | 477 kts | 286° |
| 2026-05-05 14:03 | 48.88598 | 1.97113 | 26650 ft | 481 kts | 286° |
| 2026-05-05 14:03 | 48.89566 | 1.92223 | 27092 ft | 484 kts | 286° |
| 2026-05-05 14:03 | 48.90535 | 1.87324 | 27522 ft | 486 kts | 286° |
| 2026-05-05 14:03 | 48.91511 | 1.82377 | 27947 ft | 489 kts | 286° |
| 2026-05-05 14:04 | 48.92489 | 1.77408 | 28346 ft | 492 kts | 286° |
| 2026-05-05 14:04 | 48.93470 | 1.72411 | 28729 ft | 496 kts | 286° |
| 2026-05-05 14:04 | 48.94458 | 1.67364 | 28994 ft | 500 kts | 286° |
| 2026-05-05 14:04 | 48.95452 | 1.62273 | 29358 ft | 503 kts | 286° |
| 2026-05-05 14:05 | 48.96443 | 1.57180 | 29899 ft | 501 kts | 286° |
| 2026-05-05 14:05 | 48.97427 | 1.52113 | 30415 ft | 498 kts | 286° |
| 2026-05-05 14:05 | 48.98406 | 1.47058 | 30899 ft | 497 kts | 285° |
| 2026-05-05 14:05 | 48.99375 | 1.42039 | 31317 ft | 496 kts | 285° |
| 2026-05-05 14:06 | 49.00343 | 1.37011 | 31727 ft | 495 kts | 285° |
| 2026-05-05 14:06 | 49.01315 | 1.31957 | 31841 ft | 500 kts | 285° |
| 2026-05-05 14:06 | 49.03231 | 1.21752 | 31880 ft | 498 kts | 281° |
| 2026-05-05 14:07 | 49.03837 | 1.11369 | 31858 ft | 492 kts | 270° |
| 2026-05-05 14:07 | 49.03956 | 1.01000 | 31861 ft | 493 kts | 269° |
| 2026-05-05 14:08 | 49.04151 | 0.90483 | 32285 ft | 496 kts | 270° |
| 2026-05-05 14:08 | 49.04286 | 0.85250 | 32753 ft | 494 kts | 271° |
| 2026-05-05 14:08 | 49.04431 | 0.80039 | 33185 ft | 492 kts | 271° |
| 2026-05-05 14:09 | 49.04579 | 0.74855 | 33604 ft | 490 kts | 271° |
| 2026-05-05 14:09 | 49.04725 | 0.69672 | 33916 ft | 490 kts | 271° |
| 2026-05-05 14:09 | 49.05008 | 0.59247 | 33876 ft | 491 kts | 270° |
| 2026-05-05 14:10 | 49.05275 | 0.48896 | 33870 ft | 487 kts | 270° |
| 2026-05-05 14:10 | 49.05530 | 0.38595 | 33882 ft | 487 kts | 270° |
| 2026-05-05 14:11 | 49.05775 | 0.28276 | 33873 ft | 487 kts | 270° |
| 2026-05-05 14:11 | 49.06012 | 0.17929 | 33888 ft | 488 kts | 270° |
| 2026-05-05 14:12 | 49.06241 | 0.07565 | 33883 ft | 490 kts | 270° |
| 2026-05-05 14:12 | 49.06461 | -0.02839 | 33904 ft | 491 kts | 269° |
| 2026-05-05 14:13 | 49.06673 | -0.13251 | 33901 ft | 492 kts | 269° |
| 2026-05-05 14:13 | 49.06876 | -0.23689 | 33908 ft | 493 kts | 269° |
| 2026-05-05 14:14 | 49.07070 | -0.34137 | 33906 ft | 493 kts | 269° |
| 2026-05-05 14:14 | 49.07256 | -0.44593 | 33910 ft | 493 kts | 269° |
| 2026-05-05 14:15 | 49.07434 | -0.55047 | 33910 ft | 493 kts | 269° |
| 2026-05-05 14:15 | 49.07602 | -0.65507 | 33916 ft | 492 kts | 269° |
| 2026-05-05 14:16 | 49.07760 | -0.75939 | 33907 ft | 492 kts | 269° |
| 2026-05-05 14:16 | 49.07908 | -0.86345 | 33910 ft | 490 kts | 269° |
| 2026-05-05 14:17 | 49.08047 | -0.96733 | 33919 ft | 489 kts | 269° |
| 2026-05-05 14:17 | 49.08178 | -1.07067 | 33914 ft | 487 kts | 268° |
| 2026-05-05 14:18 | 49.08441 | -1.17373 | 33908 ft | 486 kts | 274° |
| 2026-05-05 14:18 | 49.09774 | -1.27500 | 33924 ft | 488 kts | 282° |
| 2026-05-05 14:19 | 49.11462 | -1.37515 | 33931 ft | 487 kts | 282° |
| 2026-05-05 14:19 | 49.13109 | -1.47545 | 33923 ft | 487 kts | 282° |
| 2026-05-05 14:20 | 49.14718 | -1.57590 | 33924 ft | 487 kts | 281° |
| 2026-05-05 14:20 | 49.16313 | -1.67649 | 33933 ft | 487 kts | 281° |
| 2026-05-05 14:21 | 49.17898 | -1.77694 | 33940 ft | 487 kts | 281° |
| 2026-05-05 14:21 | 49.19479 | -1.87759 | 33944 ft | 487 kts | 281° |
| 2026-05-05 14:22 | 49.21050 | -1.97828 | 33939 ft | 486 kts | 281° |
| 2026-05-05 14:22 | 49.22626 | -2.07876 | 33942 ft | 486 kts | 282° |
| 2026-05-05 14:23 | 49.24337 | -2.17893 | 33944 ft | 486 kts | 283° |
| 2026-05-05 14:23 | 49.26079 | -2.27892 | 33958 ft | 486 kts | 283° |
| 2026-05-05 14:24 | 49.27795 | -2.37891 | 33955 ft | 485 kts | 283° |
| 2026-05-05 14:24 | 49.29481 | -2.47854 | 33964 ft | 483 kts | 283° |
| 2026-05-05 14:25 | 49.31151 | -2.57807 | 33964 ft | 481 kts | 282° |
| 2026-05-05 14:25 | 49.32805 | -2.67721 | 33963 ft | 480 kts | 283° |
| 2026-05-05 14:26 | 49.34448 | -2.77621 | 33965 ft | 478 kts | 283° |
| 2026-05-05 14:26 | 49.36076 | -2.87482 | 33966 ft | 477 kts | 283° |
| 2026-05-05 14:27 | 49.37692 | -2.97329 | 33965 ft | 476 kts | 283° |
| 2026-05-05 14:27 | 49.39299 | -3.07180 | 33970 ft | 476 kts | 283° |
| 2026-05-05 14:28 | 49.40897 | -3.17040 | 33975 ft | 476 kts | 284° |
| 2026-05-05 14:28 | 49.42478 | -3.26845 | 33973 ft | 476 kts | 284° |
| 2026-05-05 14:29 | 49.44060 | -3.36715 | 33973 ft | 476 kts | 284° |
| 2026-05-05 14:29 | 49.45633 | -3.46584 | 33978 ft | 476 kts | 284° |
| 2026-05-05 14:30 | 49.47201 | -3.56484 | 33976 ft | 476 kts | 284° |
| 2026-05-05 14:30 | 49.48756 | -3.66362 | 33980 ft | 475 kts | 283° |
| 2026-05-05 14:31 | 49.50299 | -3.76227 | 33988 ft | 474 kts | 283° |
| 2026-05-05 14:31 | 49.51832 | -3.86081 | 33985 ft | 473 kts | 283° |
| 2026-05-05 14:32 | 49.53357 | -3.95948 | 33992 ft | 473 kts | 283° |
| 2026-05-05 14:32 | 49.54871 | -4.05810 | 33993 ft | 473 kts | 283° |
| 2026-05-05 14:33 | 49.56376 | -4.15667 | 33999 ft | 473 kts | 283° |
| 2026-05-05 14:33 | 49.57877 | -4.25549 | 33999 ft | 474 kts | 283° |
| 2026-05-05 14:34 | 49.59357 | -4.35445 | 34002 ft | 474 kts | 282° |
| 2026-05-05 14:34 | 49.60656 | -4.45418 | 34001 ft | 475 kts | 281° |
| 2026-05-05 14:35 | 49.61885 | -4.55427 | 33991 ft | 476 kts | 281° |
| 2026-05-05 14:35 | 49.62917 | -4.63777 | 34012 ft | 478 kts | 281° |
| 2026-05-05 14:36 | 49.64174 | -4.73869 | 34009 ft | 480 kts | 281° |
| 2026-05-05 14:36 | 49.65434 | -4.83996 | 34006 ft | 481 kts | 281° |
| 2026-05-05 14:37 | 49.66686 | -4.94134 | 34002 ft | 481 kts | 281° |
| 2026-05-05 14:37 | 49.67926 | -5.04264 | 34008 ft | 480 kts | 281° |
| 2026-05-05 14:38 | 49.69156 | -5.14384 | 34005 ft | 479 kts | 280° |
| 2026-05-05 14:38 | 49.70373 | -5.24480 | 34007 ft | 478 kts | 280° |
| 2026-05-05 14:39 | 49.71579 | -5.34564 | 34009 ft | 477 kts | 280° |
| 2026-05-05 14:39 | 49.72774 | -5.44632 | 34014 ft | 476 kts | 281° |
| 2026-05-05 14:40 | 49.73961 | -5.54707 | 34013 ft | 476 kts | 281° |
| 2026-05-05 14:40 | 49.75129 | -5.64702 | 34022 ft | 476 kts | 281° |
| 2026-05-05 14:41 | 49.76298 | -5.74787 | 34012 ft | 476 kts | 281° |
| 2026-05-05 14:41 | 49.77458 | -5.84869 | 34034 ft | 476 kts | 280° |
| 2026-05-05 14:42 | 49.78609 | -5.94966 | 34030 ft | 477 kts | 281° |
| 2026-05-05 14:42 | 49.79752 | -6.05065 | 34044 ft | 477 kts | 281° |
| 2026-05-05 14:43 | 49.80888 | -6.15180 | 34044 ft | 477 kts | 281° |
| 2026-05-05 14:43 | 49.82014 | -6.25294 | 34049 ft | 477 kts | 282° |
| 2026-05-05 14:44 | 49.83131 | -6.35411 | 34044 ft | 477 kts | 281° |
| 2026-05-05 14:44 | 49.84239 | -6.45533 | 34049 ft | 477 kts | 281° |
| 2026-05-05 14:45 | 49.85339 | -6.55665 | 34050 ft | 477 kts | 281° |
| 2026-05-05 14:45 | 49.86432 | -6.65821 | 34052 ft | 477 kts | 281° |
| 2026-05-05 14:46 | 49.87523 | -6.76038 | 34070 ft | 485 kts | 281° |
| 2026-05-05 14:46 | 49.88625 | -6.86446 | 34054 ft | 493 kts | 282° |
| 2026-05-05 14:47 | 49.89732 | -6.97002 | 34067 ft | 497 kts | 282° |
| 2026-05-05 14:47 | 49.90834 | -7.07620 | 34059 ft | 498 kts | 282° |
| 2026-05-05 14:48 | 49.91925 | -7.18229 | 34063 ft | 497 kts | 282° |
| 2026-05-05 14:48 | 49.93004 | -7.28821 | 34062 ft | 496 kts | 281° |
| 2026-05-05 14:49 | 49.94069 | -7.39366 | 34069 ft | 494 kts | 281° |
| 2026-05-05 14:49 | 49.95122 | -7.49891 | 34072 ft | 492 kts | 281° |
| 2026-05-05 14:50 | 49.96161 | -7.60368 | 34071 ft | 490 kts | 281° |
| 2026-05-05 14:50 | 49.97188 | -7.70828 | 34075 ft | 489 kts | 281° |
| 2026-05-05 14:51 | 49.98203 | -7.81265 | 34075 ft | 488 kts | 280° |
| 2026-05-05 14:51 | 49.99208 | -7.91689 | 34081 ft | 487 kts | 280° |
| 2026-05-05 14:52 | 50.00292 | -8.01987 | 34079 ft | 486 kts | 285° |
| 2026-05-05 14:52 | 50.02048 | -8.12100 | 34094 ft | 485 kts | 287° |
| 2026-05-05 14:53 | 50.03865 | -8.22213 | 34091 ft | 486 kts | 287° |
| 2026-05-05 14:53 | 50.05655 | -8.32364 | 34090 ft | 485 kts | 286° |
| 2026-05-05 14:54 | 50.07410 | -8.42497 | 34088 ft | 485 kts | 286° |
| 2026-05-05 14:54 | 50.09147 | -8.52627 | 34092 ft | 484 kts | 286° |
| 2026-05-05 14:55 | 50.10875 | -8.62759 | 34103 ft | 484 kts | 286° |
| 2026-05-05 14:55 | 50.12592 | -8.72878 | 34089 ft | 483 kts | 286° |
| 2026-05-05 14:56 | 50.14296 | -8.82977 | 34102 ft | 481 kts | 286° |
| 2026-05-05 14:56 | 50.15988 | -8.93065 | 34102 ft | 480 kts | 285° |
| 2026-05-05 14:57 | 50.17666 | -9.03129 | 34103 ft | 479 kts | 285° |
| 2026-05-05 14:57 | 50.19335 | -9.13196 | 34104 ft | 479 kts | 285° |
| 2026-05-05 14:58 | 50.20999 | -9.23293 | 34094 ft | 480 kts | 285° |
| 2026-05-05 14:58 | 50.22650 | -9.33368 | 34103 ft | 480 kts | 285° |
| 2026-05-05 14:59 | 50.24296 | -9.43478 | 34104 ft | 480 kts | 285° |
| 2026-05-05 14:59 | 50.25935 | -9.53605 | 34109 ft | 481 kts | 285° |
| 2026-05-05 15:00 | 50.27294 | -9.62043 | 34111 ft | 481 kts | 285° |
| 2026-05-05 15:00 | 50.29190 | -9.73898 | 34115 ft | 481 kts | 285° |
| 2026-05-05 15:01 | 50.30803 | -9.84051 | 34111 ft | 481 kts | 285° |
| 2026-05-05 15:01 | 50.32407 | -9.94203 | 34112 ft | 481 kts | 285° |
| 2026-05-05 15:02 | 50.34001 | -10.04358 | 34114 ft | 480 kts | 285° |
| 2026-05-05 15:02 | 50.35585 | -10.14513 | 34114 ft | 480 kts | 284° |
| 2026-05-05 15:03 | 50.37158 | -10.24660 | 34117 ft | 480 kts | 284° |
| 2026-05-05 15:03 | 50.38723 | -10.34821 | 34116 ft | 479 kts | 284° |
| 2026-05-05 15:04 | 50.40276 | -10.44966 | 34119 ft | 479 kts | 284° |
| 2026-05-05 15:04 | 50.41819 | -10.55111 | 34120 ft | 478 kts | 284° |
| 2026-05-05 15:05 | 50.44113 | -10.70317 | 34120 ft | 477 kts | 284° |
| 2026-05-05 15:06 | 50.45618 | -10.80372 | 34132 ft | 476 kts | 284° |
| 2026-05-05 15:06 | 50.47123 | -10.90488 | 34127 ft | 476 kts | 284° |
| 2026-05-05 15:07 | 50.48618 | -11.00607 | 34128 ft | 476 kts | 284° |
| 2026-05-05 15:07 | 50.50104 | -11.10726 | 34131 ft | 475 kts | 284° |
| 2026-05-05 15:08 | 50.51582 | -11.20864 | 34127 ft | 476 kts | 284° |
| 2026-05-05 15:08 | 50.53046 | -11.30969 | 34133 ft | 475 kts | 284° |
| 2026-05-05 15:09 | 50.54504 | -11.41098 | 34138 ft | 475 kts | 284° |
| 2026-05-05 15:09 | 50.55955 | -11.51244 | 34134 ft | 475 kts | 284° |
| 2026-05-05 15:10 | 50.57394 | -11.61376 | 34137 ft | 475 kts | 284° |
| 2026-05-05 15:10 | 50.58825 | -11.71522 | 34148 ft | 475 kts | 284° |
| 2026-05-05 15:11 | 50.60246 | -11.81661 | 34157 ft | 474 kts | 284° |
| 2026-05-05 15:11 | 50.61655 | -11.91788 | 34146 ft | 474 kts | 284° |
| 2026-05-05 15:12 | 50.63054 | -12.01910 | 34146 ft | 473 kts | 283° |
| 2026-05-05 15:12 | 50.64446 | -12.12049 | 34158 ft | 473 kts | 283° |
| 2026-05-05 15:13 | 50.65830 | -12.22201 | 34143 ft | 473 kts | 283° |
| 2026-05-05 15:13 | 50.67200 | -12.32322 | 34144 ft | 472 kts | 283° |
| 2026-05-05 15:14 | 50.68561 | -12.42450 | 34153 ft | 472 kts | 283° |
| 2026-05-05 15:14 | 50.69911 | -12.52565 | 34165 ft | 471 kts | 283° |
| 2026-05-05 15:15 | 50.71250 | -12.62666 | 34173 ft | 470 kts | 283° |
| 2026-05-05 15:15 | 50.72579 | -12.72761 | 34146 ft | 470 kts | 282° |
| 2026-05-05 15:16 | 50.73898 | -12.82859 | 34174 ft | 469 kts | 282° |
| 2026-05-05 15:16 | 50.75207 | -12.92947 | 34177 ft | 469 kts | 282° |
| 2026-05-05 15:17 | 50.76507 | -13.03045 | 34171 ft | 469 kts | 282° |
| 2026-05-05 15:17 | 50.77799 | -13.13150 | 34178 ft | 469 kts | 282° |
| 2026-05-05 15:18 | 50.79084 | -13.23267 | 34178 ft | 469 kts | 282° |
| 2026-05-05 15:18 | 50.80358 | -13.33379 | 34178 ft | 470 kts | 282° |
| 2026-05-05 15:18 | 50.80991 | -13.38437 | 34451 ft | 468 kts | 282° |
| 2026-05-05 15:19 | 50.81617 | -13.43452 | 34886 ft | 463 kts | 282° |
| 2026-05-05 15:19 | 50.82235 | -13.48421 | 35237 ft | 460 kts | 282° |
| 2026-05-05 15:19 | 50.82850 | -13.53382 | 35516 ft | 459 kts | 282° |
| 2026-05-05 15:19 | 50.83463 | -13.58352 | 35736 ft | 460 kts | 282° |
| 2026-05-05 15:20 | 50.84068 | -13.63264 | 35935 ft | 461 kts | 281° |
| 2026-05-05 15:20 | 50.84685 | -13.68300 | 36095 ft | 462 kts | 281° |
| 2026-05-05 15:20 | 50.85286 | -13.73226 | 36139 ft | 463 kts | 281° |
| 2026-05-05 15:21 | 50.86490 | -13.83147 | 36182 ft | 455 kts | 281° |
| 2026-05-05 15:21 | 50.87476 | -13.91329 | 36188 ft | 451 kts | 281° |
| 2026-05-05 15:22 | 50.88835 | -14.02677 | 36197 ft | 450 kts | 281° |
| 2026-05-05 15:22 | 50.89803 | -14.10828 | 36197 ft | 450 kts | 281° |
| 2026-05-05 15:23 | 50.90954 | -14.20581 | 36198 ft | 451 kts | 281° |
| 2026-05-05 15:23 | 50.92098 | -14.30354 | 36198 ft | 452 kts | 281° |
| 2026-05-05 15:24 | 50.93237 | -14.40158 | 36207 ft | 452 kts | 281° |
| 2026-05-05 15:24 | 50.94369 | -14.49977 | 36201 ft | 453 kts | 281° |
| 2026-05-05 15:25 | 50.95493 | -14.59808 | 36202 ft | 453 kts | 281° |
| 2026-05-05 15:25 | 50.96610 | -14.69647 | 36204 ft | 453 kts | 281° |
| 2026-05-05 15:26 | 50.97720 | -14.79502 | 36205 ft | 453 kts | 281° |
| 2026-05-05 15:26 | 50.98813 | -14.89271 | 36206 ft | 453 kts | 280° |
| 2026-05-05 15:27 | 50.99952 | -14.99100 | 36204 ft | 452 kts | 283° |
| 2026-05-05 15:27 | 51.01858 | -15.08570 | 36210 ft | 451 kts | 290° |
| 2026-05-05 15:28 | 51.04007 | -15.17953 | 36211 ft | 451 kts | 290° |
| 2026-05-05 15:28 | 51.06135 | -15.27350 | 36215 ft | 451 kts | 289° |
| 2026-05-05 15:29 | 51.08234 | -15.36747 | 36217 ft | 451 kts | 289° |
| 2026-05-05 15:29 | 51.10319 | -15.46152 | 36216 ft | 451 kts | 289° |
| 2026-05-05 15:30 | 51.12397 | -15.55579 | 36217 ft | 451 kts | 289° |
| 2026-05-05 15:30 | 51.14461 | -15.64979 | 36221 ft | 450 kts | 289° |
| 2026-05-05 15:31 | 51.16518 | -15.74392 | 36220 ft | 450 kts | 289° |
| 2026-05-05 15:31 | 51.18572 | -15.83827 | 36222 ft | 450 kts | 289° |
| 2026-05-05 15:32 | 51.20617 | -15.93267 | 36225 ft | 450 kts | 289° |
| 2026-05-05 15:32 | 51.22650 | -16.02697 | 36228 ft | 450 kts | 289° |
| 2026-05-05 15:33 | 51.24668 | -16.12099 | 36230 ft | 450 kts | 288° |
| 2026-05-05 15:33 | 51.26696 | -16.21590 | 36225 ft | 450 kts | 288° |
| 2026-05-05 15:34 | 51.28719 | -16.31106 | 36230 ft | 450 kts | 288° |
| 2026-05-05 15:34 | 51.30713 | -16.40528 | 36232 ft | 451 kts | 288° |
| 2026-05-05 15:35 | 51.32715 | -16.50030 | 36226 ft | 451 kts | 288° |
| 2026-05-05 15:35 | 51.34705 | -16.59524 | 36248 ft | 451 kts | 288° |
| 2026-05-05 15:36 | 51.36690 | -16.69037 | 36237 ft | 451 kts | 288° |
| 2026-05-05 15:36 | 51.38669 | -16.78563 | 36238 ft | 451 kts | 288° |
| 2026-05-05 15:37 | 51.40641 | -16.88102 | 36237 ft | 451 kts | 288° |
| 2026-05-05 15:37 | 51.42603 | -16.97643 | 36239 ft | 451 kts | 288° |
| 2026-05-05 15:38 | 51.44560 | -17.07202 | 36232 ft | 451 kts | 288° |
| 2026-05-05 15:38 | 51.46505 | -17.16750 | 36246 ft | 451 kts | 288° |
| 2026-05-05 15:39 | 51.48446 | -17.26321 | 36244 ft | 451 kts | 288° |
| 2026-05-05 15:39 | 51.50380 | -17.35908 | 36243 ft | 452 kts | 288° |
| 2026-05-05 15:40 | 51.52309 | -17.45515 | 36241 ft | 452 kts | 288° |
| 2026-05-05 15:40 | 51.54214 | -17.55052 | 36245 ft | 452 kts | 287° |
| 2026-05-05 15:41 | 51.56126 | -17.64672 | 36245 ft | 452 kts | 288° |
| 2026-05-05 15:41 | 51.58031 | -17.74302 | 36253 ft | 452 kts | 288° |
| 2026-05-05 15:42 | 51.59928 | -17.83938 | 36250 ft | 452 kts | 288° |
| 2026-05-05 15:42 | 51.61819 | -17.93593 | 36255 ft | 452 kts | 287° |
| 2026-05-05 15:43 | 51.63700 | -18.03244 | 36258 ft | 452 kts | 287° |
| 2026-05-05 15:43 | 51.65576 | -18.12922 | 36252 ft | 452 kts | 287° |
| 2026-05-05 15:44 | 51.67439 | -18.22576 | 36246 ft | 452 kts | 287° |
| 2026-05-05 15:44 | 51.69294 | -18.32243 | 36258 ft | 451 kts | 287° |
| 2026-05-05 15:45 | 51.71143 | -18.41924 | 36257 ft | 451 kts | 287° |
| 2026-05-05 15:45 | 51.72979 | -18.51592 | 36252 ft | 451 kts | 287° |
| 2026-05-05 15:46 | 51.74805 | -18.61249 | 36259 ft | 451 kts | 287° |
| 2026-05-05 15:46 | 51.76629 | -18.70951 | 36267 ft | 450 kts | 287° |
| 2026-05-05 15:47 | 51.78440 | -18.80634 | 36253 ft | 450 kts | 287° |
| 2026-05-05 15:47 | 51.80242 | -18.90317 | 36259 ft | 450 kts | 287° |
| 2026-05-05 15:48 | 51.82037 | -19.00013 | 36264 ft | 450 kts | 287° |
| 2026-05-05 15:48 | 51.83822 | -19.09709 | 36262 ft | 450 kts | 287° |
| 2026-05-05 15:49 | 51.85599 | -19.19410 | 36262 ft | 450 kts | 287° |
| 2026-05-05 15:49 | 51.87371 | -19.29133 | 36271 ft | 451 kts | 287° |
| 2026-05-05 15:50 | 51.89139 | -19.38886 | 36256 ft | 451 kts | 287° |
| 2026-05-05 15:50 | 51.90893 | -19.48617 | 36267 ft | 451 kts | 287° |
| 2026-05-05 15:51 | 51.92640 | -19.58361 | 36270 ft | 451 kts | 287° |
| 2026-05-05 15:51 | 51.94383 | -19.68137 | 36269 ft | 451 kts | 287° |
| 2026-05-05 15:52 | 51.96116 | -19.77906 | 36266 ft | 451 kts | 287° |
| 2026-05-05 15:52 | 51.97841 | -19.87679 | 36267 ft | 451 kts | 286° |
| 2026-05-05 15:53 | 51.99558 | -19.97457 | 36259 ft | 451 kts | 287° |
| 2026-05-05 15:53 | 52.01699 | -20.06996 | 36289 ft | 450 kts | 292° |
| 2026-05-05 15:54 | 52.04078 | -20.16320 | 36272 ft | 450 kts | 292° |
| 2026-05-05 15:54 | 52.06481 | -20.25799 | 36269 ft | 451 kts | 292° |
| 2026-05-05 15:55 | 52.08847 | -20.35247 | 36269 ft | 451 kts | 292° |
| 2026-05-05 15:55 | 52.11185 | -20.44651 | 36266 ft | 451 kts | 292° |
| 2026-05-05 15:56 | 52.13526 | -20.54119 | 36271 ft | 451 kts | 292° |
| 2026-05-05 15:56 | 52.15860 | -20.63597 | 36269 ft | 451 kts | 292° |
| 2026-05-05 15:57 | 52.18190 | -20.73098 | 36275 ft | 452 kts | 292° |
| 2026-05-05 15:57 | 52.20512 | -20.82604 | 36272 ft | 452 kts | 292° |
| 2026-05-05 15:58 | 52.22830 | -20.92137 | 36271 ft | 452 kts | 292° |
| 2026-05-05 15:58 | 52.25140 | -21.01679 | 36277 ft | 452 kts | 292° |
| 2026-05-05 15:59 | 52.27441 | -21.11228 | 36274 ft | 452 kts | 292° |
| 2026-05-05 15:59 | 52.29734 | -21.20782 | 36274 ft | 452 kts | 292° |
| 2026-05-05 16:00 | 52.32020 | -21.30350 | 36270 ft | 452 kts | 292° |
| 2026-05-05 16:00 | 52.34303 | -21.39947 | 36279 ft | 453 kts | 292° |
| 2026-05-05 16:01 | 52.36575 | -21.49542 | 36277 ft | 453 kts | 292° |
| 2026-05-05 16:01 | 52.38845 | -21.59168 | 36276 ft | 453 kts | 292° |
| 2026-05-05 16:02 | 52.41110 | -21.68818 | 36275 ft | 453 kts | 292° |
| 2026-05-05 16:02 | 52.43363 | -21.78462 | 36274 ft | 454 kts | 292° |
| 2026-05-05 16:03 | 52.45612 | -21.88133 | 36279 ft | 454 kts | 292° |
| 2026-05-05 16:03 | 52.47849 | -21.97792 | 36271 ft | 454 kts | 292° |
| 2026-05-05 16:04 | 52.50079 | -22.07470 | 36275 ft | 454 kts | 292° |
| 2026-05-05 16:04 | 52.52290 | -22.17105 | 36279 ft | 454 kts | 292° |
| 2026-05-05 16:05 | 52.54508 | -22.26816 | 36284 ft | 454 kts | 291° |
| 2026-05-05 16:05 | 52.56735 | -22.36612 | 36279 ft | 454 kts | 291° |
| 2026-05-05 16:06 | 52.58922 | -22.46276 | 36280 ft | 454 kts | 291° |
| 2026-05-05 16:06 | 52.61121 | -22.56038 | 36279 ft | 455 kts | 291° |
| 2026-05-05 16:07 | 52.63308 | -22.65789 | 36277 ft | 454 kts | 292° |
| 2026-05-05 16:07 | 52.65485 | -22.75546 | 36278 ft | 454 kts | 291° |
| 2026-05-05 16:08 | 52.67661 | -22.85339 | 36283 ft | 454 kts | 291° |
| 2026-05-05 16:08 | 52.69822 | -22.95113 | 36283 ft | 455 kts | 291° |
| 2026-05-05 16:09 | 52.71980 | -23.04924 | 36286 ft | 455 kts | 291° |
| 2026-05-05 16:09 | 52.74127 | -23.14728 | 36287 ft | 455 kts | 291° |
| 2026-05-05 16:10 | 52.75910 | -23.22903 | 36284 ft | 455 kts | 291° |
| 2026-05-05 16:10 | 52.78044 | -23.32735 | 36280 ft | 455 kts | 292° |
| 2026-05-05 16:11 | 52.80174 | -23.42591 | 36283 ft | 455 kts | 291° |
| 2026-05-05 16:12 | 52.84404 | -23.62311 | 36286 ft | 455 kts | 291° |
| 2026-05-05 16:13 | 52.89654 | -23.87058 | 36293 ft | 456 kts | 291° |
| 2026-05-05 16:13 | 52.91739 | -23.96973 | 36286 ft | 456 kts | 292° |
| 2026-05-05 16:14 | 52.95890 | -24.16853 | 36284 ft | 456 kts | 291° |
| 2026-05-05 16:15 | 53.00008 | -24.36771 | 36272 ft | 456 kts | 292° |
| 2026-05-05 16:16 | 53.04092 | -24.56727 | 36295 ft | 456 kts | 291° |
| 2026-05-05 16:17 | 53.07129 | -24.71701 | 36280 ft | 455 kts | 292° |
| 2026-05-05 16:18 | 53.10146 | -24.86682 | 36290 ft | 455 kts | 291° |
| 2026-05-05 16:19 | 53.13140 | -25.01668 | 36287 ft | 455 kts | 292° |
| 2026-05-05 16:19 | 53.16117 | -25.16686 | 36294 ft | 455 kts | 291° |
| 2026-05-05 16:20 | 53.20041 | -25.36659 | 36279 ft | 455 kts | 291° |
| 2026-05-05 16:22 | 53.24914 | -25.61752 | 36290 ft | 455 kts | 291° |
| 2026-05-05 16:23 | 53.28773 | -25.81863 | 36292 ft | 455 kts | 291° |
| 2026-05-05 16:23 | 53.31646 | -25.96971 | 36292 ft | 455 kts | 291° |
| 2026-05-05 16:24 | 53.33552 | -26.07065 | 36296 ft | 454 kts | 291° |
| 2026-05-05 16:25 | 53.36389 | -26.22185 | 36295 ft | 454 kts | 291° |
| 2026-05-05 16:25 | 53.39208 | -26.37338 | 36294 ft | 454 kts | 291° |
| 2026-05-05 16:26 | 53.42936 | -26.57559 | 36296 ft | 455 kts | 291° |
| 2026-05-05 16:27 | 53.44788 | -26.67693 | 36298 ft | 455 kts | 291° |
| 2026-05-05 16:27 | 53.46637 | -26.77858 | 36271 ft | 455 kts | 291° |
| 2026-05-05 16:28 | 53.48471 | -26.88009 | 36291 ft | 455 kts | 291° |
| 2026-05-05 16:28 | 53.50299 | -26.98172 | 36295 ft | 455 kts | 290° |
| 2026-05-05 16:29 | 53.52120 | -27.08355 | 36294 ft | 455 kts | 290° |
| 2026-05-05 16:29 | 53.53931 | -27.18542 | 36294 ft | 455 kts | 290° |
| 2026-05-05 16:30 | 53.55736 | -27.28752 | 36297 ft | 456 kts | 290° |
| 2026-05-05 16:30 | 53.57535 | -27.38986 | 36298 ft | 456 kts | 290° |
| 2026-05-05 16:31 | 53.59322 | -27.49208 | 36298 ft | 456 kts | 290° |
| 2026-05-05 16:31 | 53.61104 | -27.59465 | 36289 ft | 456 kts | 290° |
| 2026-05-05 16:32 | 53.62874 | -27.69711 | 36296 ft | 456 kts | 290° |
| 2026-05-05 16:32 | 53.64637 | -27.79974 | 36300 ft | 456 kts | 290° |
| 2026-05-05 16:33 | 53.66391 | -27.90241 | 36299 ft | 456 kts | 290° |
| 2026-05-05 16:33 | 53.68137 | -28.00525 | 36299 ft | 456 kts | 290° |
| 2026-05-05 16:34 | 53.69876 | -28.10826 | 36296 ft | 456 kts | 290° |
| 2026-05-05 16:34 | 53.71604 | -28.21123 | 36285 ft | 456 kts | 289° |
| 2026-05-05 16:35 | 53.73320 | -28.31411 | 36295 ft | 455 kts | 289° |
| 2026-05-05 16:35 | 53.75029 | -28.41718 | 36298 ft | 455 kts | 289° |
| 2026-05-05 16:36 | 53.76728 | -28.52027 | 36297 ft | 456 kts | 289° |
| 2026-05-05 16:36 | 53.78409 | -28.62288 | 36296 ft | 456 kts | 289° |
| 2026-05-05 16:37 | 53.80103 | -28.72690 | 36296 ft | 456 kts | 289° |
| 2026-05-05 16:37 | 53.81766 | -28.82965 | 36297 ft | 456 kts | 288° |
| 2026-05-05 16:38 | 53.83442 | -28.93384 | 36269 ft | 456 kts | 288° |
| 2026-05-05 16:38 | 53.85099 | -29.03745 | 36284 ft | 456 kts | 287° |
| 2026-05-05 16:39 | 53.86737 | -29.14054 | 36286 ft | 456 kts | 287° |
| 2026-05-05 16:39 | 53.88377 | -29.24447 | 36303 ft | 457 kts | 287° |
| 2026-05-05 16:40 | 53.90010 | -29.34852 | 36287 ft | 457 kts | 287° |
| 2026-05-05 16:40 | 53.91635 | -29.45271 | 36286 ft | 457 kts | 287° |
| 2026-05-05 16:41 | 53.93251 | -29.55705 | 36283 ft | 457 kts | 287° |
| 2026-05-05 16:41 | 53.94858 | -29.66139 | 36262 ft | 457 kts | 286° |
| 2026-05-05 16:42 | 53.96459 | -29.76608 | 36288 ft | 458 kts | 286° |
| 2026-05-05 16:42 | 53.98052 | -29.87087 | 36285 ft | 459 kts | 286° |
| 2026-05-05 16:43 | 53.99638 | -29.97579 | 36282 ft | 459 kts | 286° |
| 2026-05-05 16:43 | 54.00825 | -30.08274 | 36293 ft | 461 kts | 281° |
| 2026-05-05 16:44 | 54.01779 | -30.19059 | 36283 ft | 461 kts | 280° |
| 2026-05-05 16:44 | 54.02727 | -30.29844 | 36280 ft | 461 kts | 281° |
| 2026-05-05 16:45 | 54.03684 | -30.40640 | 36272 ft | 462 kts | 279° |
| 2026-05-05 16:45 | 54.04634 | -30.51395 | 36280 ft | 463 kts | 279° |
| 2026-05-05 16:46 | 54.05585 | -30.62253 | 36283 ft | 465 kts | 279° |
| 2026-05-05 16:46 | 54.06529 | -30.73148 | 36281 ft | 466 kts | 279° |
| 2026-05-05 16:47 | 54.07470 | -30.84126 | 36274 ft | 466 kts | 279° |
| 2026-05-05 16:47 | 54.08397 | -30.95069 | 36275 ft | 466 kts | 279° |
| 2026-05-05 16:48 | 54.09307 | -31.05937 | 36259 ft | 466 kts | 278° |
| 2026-05-05 16:48 | 54.10212 | -31.16867 | 36268 ft | 466 kts | 278° |
| 2026-05-05 16:49 | 54.11105 | -31.27775 | 36264 ft | 465 kts | 278° |
| 2026-05-05 16:49 | 54.11989 | -31.38695 | 36267 ft | 465 kts | 278° |
| 2026-05-05 16:50 | 54.12862 | -31.49607 | 36261 ft | 464 kts | 278° |
| 2026-05-05 16:50 | 54.13725 | -31.60520 | 36259 ft | 464 kts | 278° |
| 2026-05-05 16:51 | 54.14577 | -31.71437 | 36261 ft | 464 kts | 278° |
| 2026-05-05 16:51 | 54.15422 | -31.82369 | 36253 ft | 465 kts | 277° |
| 2026-05-05 16:52 | 54.16258 | -31.93337 | 36259 ft | 467 kts | 276° |
| 2026-05-05 16:52 | 54.17086 | -32.04335 | 36253 ft | 469 kts | 276° |
| 2026-05-05 16:53 | 54.17907 | -32.15384 | 36245 ft | 470 kts | 276° |
| 2026-05-05 16:53 | 54.18721 | -32.26473 | 36241 ft | 471 kts | 276° |
| 2026-05-05 16:54 | 54.19527 | -32.37587 | 36237 ft | 471 kts | 276° |
| 2026-05-05 16:54 | 54.20323 | -32.48704 | 36231 ft | 472 kts | 275° |
| 2026-05-05 16:55 | 54.21104 | -32.59769 | 36237 ft | 472 kts | 275° |
| 2026-05-05 16:55 | 54.21754 | -32.69103 | 36235 ft | 473 kts | 275° |
| 2026-05-05 16:56 | 54.22522 | -32.80270 | 36224 ft | 473 kts | 275° |
| 2026-05-05 16:56 | 54.23282 | -32.91455 | 36227 ft | 474 kts | 275° |
| 2026-05-05 16:57 | 54.24031 | -33.02650 | 36222 ft | 474 kts | 275° |
| 2026-05-05 16:57 | 54.24770 | -33.13843 | 36224 ft | 474 kts | 274° |
| 2026-05-05 16:58 | 54.25501 | -33.25080 | 36226 ft | 475 kts | 274° |
| 2026-05-05 16:58 | 54.26221 | -33.36330 | 36214 ft | 476 kts | 274° |
| 2026-05-05 16:59 | 54.26933 | -33.47613 | 36230 ft | 478 kts | 274° |
| 2026-05-05 16:59 | 54.27637 | -33.58934 | 36212 ft | 479 kts | 274° |
| 2026-05-05 17:00 | 54.28327 | -33.70205 | 36208 ft | 480 kts | 274° |
| 2026-05-05 17:00 | 54.29011 | -33.81558 | 36201 ft | 480 kts | 274° |
| 2026-05-05 17:01 | 54.29686 | -33.92935 | 36201 ft | 481 kts | 273° |
| 2026-05-05 17:01 | 54.30352 | -34.04360 | 36189 ft | 482 kts | 273° |
| 2026-05-05 17:02 | 54.31008 | -34.15786 | 36189 ft | 482 kts | 272° |
| 2026-05-05 17:02 | 54.31653 | -34.27211 | 36194 ft | 482 kts | 272° |
| 2026-05-05 17:03 | 54.32287 | -34.38657 | 36190 ft | 483 kts | 272° |
| 2026-05-05 17:03 | 54.32912 | -34.50119 | 36180 ft | 484 kts | 272° |
| 2026-05-05 17:04 | 54.33526 | -34.61607 | 36183 ft | 483 kts | 272° |
| 2026-05-05 17:04 | 54.34129 | -34.73064 | 36169 ft | 483 kts | 272° |
| 2026-05-05 17:05 | 54.34721 | -34.84538 | 36178 ft | 483 kts | 272° |
| 2026-05-05 17:05 | 54.35303 | -34.96040 | 36156 ft | 484 kts | 272° |
| 2026-05-05 17:06 | 54.35873 | -35.07521 | 36160 ft | 483 kts | 272° |
| 2026-05-05 17:06 | 54.36431 | -35.18984 | 36162 ft | 484 kts | 271° |
| 2026-05-05 17:07 | 54.36978 | -35.30431 | 36159 ft | 485 kts | 271° |
| 2026-05-05 17:07 | 54.37521 | -35.42050 | 36155 ft | 487 kts | 271° |
| 2026-05-05 17:08 | 54.38048 | -35.53553 | 36143 ft | 488 kts | 271° |
| 2026-05-05 17:08 | 54.38569 | -35.65166 | 36144 ft | 489 kts | 271° |
| 2026-05-05 17:09 | 54.39079 | -35.76804 | 36141 ft | 489 kts | 271° |
| 2026-05-05 17:09 | 54.39579 | -35.88440 | 36134 ft | 489 kts | 271° |
| 2026-05-05 17:10 | 54.40069 | -36.00124 | 36135 ft | 491 kts | 270° |
| 2026-05-05 17:10 | 54.40547 | -36.11816 | 36134 ft | 492 kts | 270° |
| 2026-05-05 17:11 | 54.41016 | -36.23559 | 36128 ft | 493 kts | 270° |
| 2026-05-05 17:11 | 54.41475 | -36.35316 | 36120 ft | 494 kts | 270° |
| 2026-05-05 17:12 | 54.41923 | -36.47091 | 36121 ft | 494 kts | 270° |
| 2026-05-05 17:12 | 54.42359 | -36.58874 | 36118 ft | 494 kts | 270° |
| 2026-05-05 17:13 | 54.42784 | -36.70652 | 36117 ft | 494 kts | 269° |
| 2026-05-05 17:13 | 54.43198 | -36.82446 | 36107 ft | 495 kts | 269° |
| 2026-05-05 17:14 | 54.43600 | -36.94239 | 36114 ft | 495 kts | 269° |
| 2026-05-05 17:14 | 54.43990 | -37.06031 | 36104 ft | 495 kts | 269° |
| 2026-05-05 17:15 | 54.44367 | -37.17758 | 36110 ft | 495 kts | 269° |
| 2026-05-05 17:15 | 54.44735 | -37.29580 | 36110 ft | 495 kts | 269° |
| 2026-05-05 17:16 | 54.45092 | -37.41398 | 36112 ft | 495 kts | 268° |
| 2026-05-05 17:16 | 54.45437 | -37.53217 | 36118 ft | 494 kts | 268° |
| 2026-05-05 17:17 | 54.45770 | -37.65002 | 36101 ft | 494 kts | 268° |
| 2026-05-05 17:17 | 54.46091 | -37.76802 | 36099 ft | 494 kts | 268° |
| 2026-05-05 17:18 | 54.46400 | -37.88578 | 36096 ft | 494 kts | 268° |
| 2026-05-05 17:18 | 54.46698 | -38.00386 | 36099 ft | 494 kts | 268° |
| 2026-05-05 17:19 | 54.46985 | -38.12187 | 36108 ft | 494 kts | 268° |
| 2026-05-05 17:19 | 54.47260 | -38.23982 | 36093 ft | 494 kts | 268° |
| 2026-05-05 17:20 | 54.47523 | -38.35737 | 36109 ft | 493 kts | 268° |
| 2026-05-05 17:20 | 54.47774 | -38.47459 | 36097 ft | 493 kts | 268° |
| 2026-05-05 17:21 | 54.48013 | -38.59234 | 36097 ft | 493 kts | 267° |
| 2026-05-05 17:22 | 54.48353 | -38.76943 | 36121 ft | 494 kts | 268° |
| 2026-05-05 17:22 | 54.48565 | -38.88741 | 36097 ft | 493 kts | 268° |
| 2026-05-05 17:23 | 54.48766 | -39.00529 | 36090 ft | 492 kts | 267° |
| 2026-05-05 17:23 | 54.48954 | -39.12258 | 36093 ft | 490 kts | 267° |
| 2026-05-05 17:24 | 54.49130 | -39.23994 | 36101 ft | 490 kts | 267° |
| 2026-05-05 17:24 | 54.49295 | -39.35722 | 36095 ft | 491 kts | 267° |
| 2026-05-05 17:25 | 54.49449 | -39.47501 | 36122 ft | 492 kts | 267° |
| 2026-05-05 17:25 | 54.49592 | -39.59282 | 36097 ft | 492 kts | 267° |
| 2026-05-05 17:26 | 54.49723 | -39.70964 | 36086 ft | 492 kts | 267° |
| 2026-05-05 17:26 | 54.49844 | -39.82795 | 36089 ft | 491 kts | 267° |
| 2026-05-05 17:27 | 54.49955 | -39.94532 | 36089 ft | 491 kts | 266° |
| 2026-05-05 17:27 | 54.50007 | -40.06270 | 36086 ft | 490 kts | 265° |
| 2026-05-05 17:28 | 54.49889 | -40.17936 | 36112 ft | 490 kts | 264° |
| 2026-05-05 17:28 | 54.49731 | -40.29671 | 36086 ft | 491 kts | 264° |
| 2026-05-05 17:29 | 54.49583 | -40.41404 | 36076 ft | 491 kts | 264° |
| 2026-05-05 17:29 | 54.49438 | -40.53125 | 36076 ft | 490 kts | 264° |
| 2026-05-05 17:30 | 54.49285 | -40.64844 | 36074 ft | 490 kts | 264° |
| 2026-05-05 17:30 | 54.49121 | -40.76533 | 36070 ft | 489 kts | 264° |
| 2026-05-05 17:31 | 54.48945 | -40.88241 | 36096 ft | 489 kts | 264° |
| 2026-05-05 17:31 | 54.48757 | -40.99931 | 36060 ft | 488 kts | 264° |
| 2026-05-05 17:32 | 54.48559 | -41.11578 | 36061 ft | 487 kts | 264° |
| 2026-05-05 17:32 | 54.48351 | -41.23185 | 36060 ft | 486 kts | 264° |
| 2026-05-05 17:33 | 54.48131 | -41.34787 | 36063 ft | 485 kts | 264° |
| 2026-05-05 17:33 | 54.47900 | -41.46368 | 36057 ft | 484 kts | 264° |
| 2026-05-05 17:34 | 54.47658 | -41.57939 | 36066 ft | 484 kts | 264° |
| 2026-05-05 17:34 | 54.47405 | -41.69519 | 36063 ft | 485 kts | 263° |
| 2026-05-05 17:35 | 54.47140 | -41.81151 | 36064 ft | 487 kts | 263° |
| 2026-05-05 17:35 | 54.46864 | -41.92769 | 36056 ft | 488 kts | 263° |
| 2026-05-05 17:36 | 54.46576 | -42.04429 | 36044 ft | 488 kts | 263° |
| 2026-05-05 17:36 | 54.46279 | -42.16017 | 36048 ft | 489 kts | 263° |
| 2026-05-05 17:37 | 54.45966 | -42.27766 | 36048 ft | 489 kts | 263° |
| 2026-05-05 17:37 | 54.45644 | -42.39442 | 36035 ft | 488 kts | 263° |
| 2026-05-05 17:38 | 54.45312 | -42.51084 | 36022 ft | 487 kts | 263° |
| 2026-05-05 17:38 | 54.44969 | -42.62702 | 36029 ft | 487 kts | 263° |
| 2026-05-05 17:39 | 54.44616 | -42.74233 | 36020 ft | 486 kts | 263° |
| 2026-05-05 17:39 | 54.44251 | -42.85836 | 36019 ft | 486 kts | 263° |
| 2026-05-05 17:40 | 54.43874 | -42.97454 | 36029 ft | 487 kts | 263° |
| 2026-05-05 17:40 | 54.43487 | -43.09041 | 35997 ft | 486 kts | 263° |
| 2026-05-05 17:41 | 54.43089 | -43.20641 | 36001 ft | 486 kts | 263° |
| 2026-05-05 17:41 | 54.42681 | -43.32199 | 36002 ft | 485 kts | 262° |
| 2026-05-05 17:42 | 54.42261 | -43.43768 | 35995 ft | 485 kts | 262° |
| 2026-05-05 17:42 | 54.41830 | -43.55332 | 35993 ft | 486 kts | 262° |
| 2026-05-05 17:43 | 54.41386 | -43.66934 | 35992 ft | 487 kts | 262° |
| 2026-05-05 17:43 | 54.40932 | -43.78531 | 35981 ft | 487 kts | 262° |
| 2026-05-05 17:44 | 54.40467 | -43.90131 | 35971 ft | 487 kts | 262° |
| 2026-05-05 17:44 | 54.39991 | -44.01721 | 35970 ft | 486 kts | 262° |
| 2026-05-05 17:45 | 54.39505 | -44.13280 | 35968 ft | 486 kts | 262° |
| 2026-05-05 17:45 | 54.39091 | -44.22904 | 35963 ft | 486 kts | 262° |
| 2026-05-05 17:46 | 54.38584 | -44.34453 | 35965 ft | 486 kts | 262° |
| 2026-05-05 17:46 | 54.38066 | -44.46029 | 35942 ft | 486 kts | 262° |
| 2026-05-05 17:47 | 54.37536 | -44.57605 | 35943 ft | 486 kts | 262° |
| 2026-05-05 17:47 | 54.36996 | -44.69159 | 35937 ft | 486 kts | 262° |
| 2026-05-05 17:48 | 54.36444 | -44.80719 | 35925 ft | 486 kts | 262° |
| 2026-05-05 17:48 | 54.35881 | -44.92281 | 35927 ft | 486 kts | 262° |
| 2026-05-05 17:49 | 54.35307 | -45.03840 | 35932 ft | 486 kts | 262° |
| 2026-05-05 17:49 | 54.34723 | -45.15379 | 35914 ft | 486 kts | 262° |
| 2026-05-05 17:50 | 54.34128 | -45.26923 | 35904 ft | 486 kts | 262° |
| 2026-05-05 17:50 | 54.33522 | -45.38448 | 35904 ft | 485 kts | 262° |
| 2026-05-05 17:51 | 54.32906 | -45.49963 | 35897 ft | 485 kts | 261° |
| 2026-05-05 17:51 | 54.32283 | -45.61395 | 35891 ft | 485 kts | 261° |
| 2026-05-05 17:52 | 54.31641 | -45.72973 | 35892 ft | 485 kts | 261° |
| 2026-05-05 17:52 | 54.30992 | -45.84470 | 35872 ft | 484 kts | 261° |
| 2026-05-05 17:53 | 54.30334 | -45.95940 | 35877 ft | 484 kts | 261° |
| 2026-05-05 17:53 | 54.29669 | -46.07326 | 35859 ft | 484 kts | 261° |
| 2026-05-05 17:54 | 54.28985 | -46.18853 | 35856 ft | 484 kts | 261° |
| 2026-05-05 17:54 | 54.28299 | -46.30238 | 35855 ft | 484 kts | 261° |
| 2026-05-05 17:55 | 54.27596 | -46.41708 | 35837 ft | 484 kts | 261° |
| 2026-05-05 17:55 | 54.26884 | -46.53144 | 35848 ft | 484 kts | 261° |
| 2026-05-05 17:56 | 54.26161 | -46.64590 | 35843 ft | 483 kts | 261° |
| 2026-05-05 17:56 | 54.25430 | -46.75988 | 35840 ft | 483 kts | 261° |
| 2026-05-05 17:57 | 54.24686 | -46.87415 | 35827 ft | 483 kts | 261° |
| 2026-05-05 17:57 | 54.23931 | -46.98823 | 35815 ft | 483 kts | 261° |
| 2026-05-05 17:58 | 54.23166 | -47.10237 | 35819 ft | 483 kts | 261° |
| 2026-05-05 17:58 | 54.22392 | -47.21617 | 35804 ft | 482 kts | 261° |
| 2026-05-05 17:59 | 54.21606 | -47.33013 | 35802 ft | 482 kts | 260° |
| 2026-05-05 17:59 | 54.20810 | -47.44381 | 35788 ft | 481 kts | 260° |
| 2026-05-05 18:00 | 54.20005 | -47.55727 | 35788 ft | 481 kts | 260° |
| 2026-05-05 18:00 | 54.19189 | -47.67067 | 35793 ft | 481 kts | 260° |
| 2026-05-05 18:01 | 54.18363 | -47.78407 | 35780 ft | 481 kts | 260° |
| 2026-05-05 18:01 | 54.17527 | -47.89727 | 35775 ft | 481 kts | 260° |
| 2026-05-05 18:02 | 54.16687 | -48.00964 | 35776 ft | 480 kts | 259° |
| 2026-05-05 18:02 | 54.15831 | -48.12253 | 35763 ft | 480 kts | 260° |
| 2026-05-05 18:03 | 54.14966 | -48.23522 | 35761 ft | 479 kts | 259° |
| 2026-05-05 18:03 | 54.14091 | -48.34786 | 35758 ft | 479 kts | 259° |
| 2026-05-05 18:04 | 54.13205 | -48.46042 | 35756 ft | 479 kts | 260° |
| 2026-05-05 18:04 | 54.12309 | -48.57300 | 35752 ft | 480 kts | 259° |
| 2026-05-05 18:05 | 54.11400 | -48.68568 | 35746 ft | 481 kts | 259° |
| 2026-05-05 18:05 | 54.10479 | -48.79859 | 35731 ft | 481 kts | 259° |
| 2026-05-05 18:06 | 54.09546 | -48.91167 | 35739 ft | 482 kts | 259° |
| 2026-05-05 18:06 | 54.08602 | -49.02471 | 35730 ft | 482 kts | 259° |
| 2026-05-05 18:07 | 54.07649 | -49.13753 | 35718 ft | 480 kts | 259° |
| 2026-05-05 18:07 | 54.06690 | -49.24972 | 35719 ft | 478 kts | 259° |
| 2026-05-05 18:08 | 54.05724 | -49.36149 | 35718 ft | 477 kts | 259° |
| 2026-05-05 18:08 | 54.04757 | -49.47217 | 35692 ft | 476 kts | 259° |
| 2026-05-05 18:09 | 54.03774 | -49.58339 | 35704 ft | 475 kts | 259° |
| 2026-05-05 18:09 | 54.02780 | -49.69471 | 35708 ft | 476 kts | 259° |
| 2026-05-05 18:10 | 54.01776 | -49.80590 | 35683 ft | 475 kts | 259° |
| 2026-05-05 18:10 | 54.00767 | -49.91683 | 35707 ft | 475 kts | 259° |
| 2026-05-05 18:11 | 53.99351 | -50.02603 | 35709 ft | 472 kts | 250° |
| 2026-05-05 18:11 | 53.96937 | -50.12972 | 35683 ft | 471 kts | 245° |
| 2026-05-05 18:12 | 53.94401 | -50.23216 | 35673 ft | 471 kts | 245° |
| 2026-05-05 18:12 | 53.91877 | -50.33467 | 35683 ft | 471 kts | 246° |
| 2026-05-05 18:13 | 53.89361 | -50.43731 | 35678 ft | 471 kts | 246° |
| 2026-05-05 18:13 | 53.86847 | -50.53959 | 35668 ft | 470 kts | 246° |
| 2026-05-05 18:14 | 53.84326 | -50.64172 | 35670 ft | 470 kts | 246° |
| 2026-05-05 18:14 | 53.81794 | -50.74380 | 35663 ft | 470 kts | 245° |
| 2026-05-05 18:15 | 53.79251 | -50.84575 | 35669 ft | 470 kts | 246° |
| 2026-05-05 18:15 | 53.76707 | -50.94732 | 35655 ft | 469 kts | 246° |
| 2026-05-05 18:16 | 53.74165 | -51.04838 | 35647 ft | 468 kts | 246° |
| 2026-05-05 18:16 | 53.71608 | -51.14953 | 35649 ft | 468 kts | 246° |
| 2026-05-05 18:17 | 53.69045 | -51.25048 | 35663 ft | 468 kts | 246° |
| 2026-05-05 18:17 | 53.66495 | -51.35042 | 35656 ft | 468 kts | 246° |
| 2026-05-05 18:18 | 53.63910 | -51.45134 | 35651 ft | 468 kts | 246° |
| 2026-05-05 18:18 | 53.61301 | -51.55269 | 35643 ft | 468 kts | 246° |
| 2026-05-05 18:19 | 53.58702 | -51.65323 | 35639 ft | 468 kts | 245° |
| 2026-05-05 18:19 | 53.56117 | -51.75279 | 35636 ft | 469 kts | 245° |
| 2026-05-05 18:20 | 53.53478 | -51.85395 | 35637 ft | 468 kts | 246° |
| 2026-05-05 18:20 | 53.50870 | -51.95351 | 35627 ft | 468 kts | 246° |
| 2026-05-05 18:21 | 53.48241 | -52.05341 | 35623 ft | 468 kts | 246° |
| 2026-05-05 18:21 | 53.45606 | -52.15312 | 35623 ft | 467 kts | 246° |
| 2026-05-05 18:22 | 53.42963 | -52.25267 | 35625 ft | 467 kts | 245° |
| 2026-05-05 18:22 | 53.40316 | -52.35195 | 35623 ft | 466 kts | 246° |
| 2026-05-05 18:23 | 53.37660 | -52.45112 | 35619 ft | 467 kts | 246° |
| 2026-05-05 18:23 | 53.34999 | -52.55007 | 35614 ft | 467 kts | 245° |
| 2026-05-05 18:24 | 53.32317 | -52.64933 | 35611 ft | 468 kts | 245° |
| 2026-05-05 18:24 | 53.29628 | -52.74845 | 35610 ft | 468 kts | 245° |
| 2026-05-05 18:25 | 53.26930 | -52.84746 | 35617 ft | 468 kts | 245° |
| 2026-05-05 18:25 | 53.24225 | -52.94633 | 35606 ft | 468 kts | 245° |
| 2026-05-05 18:26 | 53.21514 | -53.04499 | 35607 ft | 468 kts | 245° |
| 2026-05-05 18:26 | 53.18798 | -53.14338 | 35608 ft | 467 kts | 245° |
| 2026-05-05 18:27 | 53.16073 | -53.24171 | 35605 ft | 467 kts | 245° |
| 2026-05-05 18:27 | 53.13358 | -53.33926 | 35599 ft | 466 kts | 245° |
| 2026-05-05 18:28 | 53.09234 | -53.48663 | 35600 ft | 466 kts | 245° |
| 2026-05-05 18:28 | 53.06490 | -53.58421 | 35608 ft | 466 kts | 245° |
| 2026-05-05 18:29 | 53.03730 | -53.68192 | 35602 ft | 467 kts | 245° |
| 2026-05-05 18:29 | 53.00962 | -53.77951 | 35596 ft | 467 kts | 245° |
| 2026-05-05 18:30 | 52.98189 | -53.87687 | 35599 ft | 467 kts | 245° |
| 2026-05-05 18:30 | 52.95408 | -53.97411 | 35599 ft | 467 kts | 245° |
| 2026-05-05 18:31 | 52.92616 | -54.07133 | 35599 ft | 467 kts | 245° |
| 2026-05-05 18:31 | 52.89818 | -54.16834 | 35598 ft | 467 kts | 245° |
| 2026-05-05 18:32 | 52.87017 | -54.26507 | 35599 ft | 466 kts | 245° |
| 2026-05-05 18:32 | 52.84686 | -54.34528 | 35597 ft | 465 kts | 245° |
| 2026-05-05 18:33 | 52.81422 | -54.45711 | 35600 ft | 464 kts | 245° |
| 2026-05-05 18:33 | 52.78616 | -54.55284 | 35601 ft | 463 kts | 245° |
| 2026-05-05 18:34 | 52.76260 | -54.63293 | 35608 ft | 462 kts | 245° |
| 2026-05-05 18:34 | 52.73444 | -54.72828 | 35600 ft | 462 kts | 245° |
| 2026-05-05 18:35 | 52.70626 | -54.82336 | 35598 ft | 461 kts | 245° |
| 2026-05-05 18:35 | 52.67800 | -54.91829 | 35599 ft | 461 kts | 245° |
| 2026-05-05 18:36 | 52.64971 | -55.01297 | 35602 ft | 461 kts | 245° |
| 2026-05-05 18:36 | 52.62149 | -55.10705 | 35592 ft | 461 kts | 245° |
| 2026-05-05 18:37 | 52.59308 | -55.20136 | 35577 ft | 460 kts | 245° |
| 2026-05-05 18:37 | 52.56467 | -55.29533 | 35576 ft | 459 kts | 245° |
| 2026-05-05 18:38 | 52.53612 | -55.38937 | 35580 ft | 459 kts | 245° |
| 2026-05-05 18:38 | 52.50760 | -55.48299 | 35573 ft | 458 kts | 245° |
| 2026-05-05 18:39 | 52.47903 | -55.57638 | 35543 ft | 458 kts | 245° |
| 2026-05-05 18:39 | 52.45046 | -55.66945 | 35557 ft | 457 kts | 245° |
| 2026-05-05 18:40 | 52.42189 | -55.76219 | 35555 ft | 456 kts | 245° |
| 2026-05-05 18:40 | 52.39397 | -55.85534 | 35540 ft | 455 kts | 249° |
| 2026-05-05 18:41 | 52.36992 | -55.95101 | 35543 ft | 454 kts | 249° |
| 2026-05-05 18:41 | 52.34596 | -56.04673 | 35538 ft | 455 kts | 249° |
| 2026-05-05 18:42 | 52.32185 | -56.14215 | 35551 ft | 454 kts | 249° |
| 2026-05-05 18:42 | 52.29763 | -56.23733 | 35557 ft | 453 kts | 249° |
| 2026-05-05 18:43 | 52.27334 | -56.33227 | 35574 ft | 453 kts | 249° |
| 2026-05-05 18:43 | 52.24895 | -56.42717 | 35575 ft | 453 kts | 249° |
| 2026-05-05 18:44 | 52.22472 | -56.52110 | 35584 ft | 452 kts | 249° |
| 2026-05-05 18:44 | 52.20029 | -56.61535 | 35575 ft | 451 kts | 249° |
| 2026-05-05 18:45 | 52.17582 | -56.70945 | 35594 ft | 451 kts | 249° |
| 2026-05-05 18:45 | 52.15126 | -56.80345 | 35596 ft | 450 kts | 249° |
| 2026-05-05 18:46 | 52.12670 | -56.89708 | 35602 ft | 450 kts | 249° |
| 2026-05-05 18:46 | 52.10201 | -56.99083 | 35600 ft | 450 kts | 249° |
| 2026-05-05 18:47 | 52.07728 | -57.08432 | 35603 ft | 449 kts | 249° |
| 2026-05-05 18:47 | 52.05252 | -57.17755 | 35603 ft | 449 kts | 249° |
| 2026-05-05 18:48 | 52.02771 | -57.27061 | 35623 ft | 449 kts | 249° |
| 2026-05-05 18:48 | 52.00282 | -57.36358 | 35619 ft | 449 kts | 249° |
| 2026-05-05 18:49 | 51.97782 | -57.45654 | 35633 ft | 449 kts | 249° |
| 2026-05-05 18:49 | 51.95277 | -57.54936 | 35617 ft | 449 kts | 249° |
| 2026-05-05 18:50 | 51.92769 | -57.64188 | 35648 ft | 449 kts | 249° |
| 2026-05-05 18:50 | 51.90249 | -57.73454 | 35631 ft | 449 kts | 249° |
| 2026-05-05 18:51 | 51.87725 | -57.82690 | 35629 ft | 449 kts | 249° |
| 2026-05-05 18:51 | 51.85195 | -57.91917 | 35629 ft | 449 kts | 249° |
| 2026-05-05 18:52 | 51.82657 | -58.01132 | 35645 ft | 449 kts | 249° |
| 2026-05-05 18:52 | 51.80133 | -58.10262 | 35640 ft | 446 kts | 249° |
| 2026-05-05 18:53 | 51.77599 | -58.19389 | 35636 ft | 445 kts | 249° |
| 2026-05-05 18:53 | 51.75067 | -58.28480 | 35638 ft | 443 kts | 249° |
| 2026-05-05 18:54 | 51.72517 | -58.37596 | 35639 ft | 442 kts | 249° |
| 2026-05-05 18:54 | 51.69982 | -58.46624 | 35645 ft | 442 kts | 249° |
| 2026-05-05 18:55 | 51.67459 | -58.55575 | 35644 ft | 441 kts | 249° |
| 2026-05-05 18:55 | 51.64920 | -58.64550 | 35638 ft | 440 kts | 249° |
| 2026-05-05 18:56 | 51.62375 | -58.73510 | 35639 ft | 440 kts | 249° |
| 2026-05-05 18:56 | 51.59828 | -58.82442 | 35637 ft | 439 kts | 249° |
| 2026-05-05 18:57 | 51.57275 | -58.91364 | 35633 ft | 439 kts | 249° |
| 2026-05-05 18:57 | 51.54713 | -59.00284 | 35630 ft | 438 kts | 249° |
| 2026-05-05 18:58 | 51.52155 | -59.09156 | 35632 ft | 437 kts | 249° |
| 2026-05-05 18:58 | 51.49596 | -59.17998 | 35636 ft | 437 kts | 249° |
| 2026-05-05 18:59 | 51.47035 | -59.26813 | 35633 ft | 436 kts | 249° |
| 2026-05-05 18:59 | 51.44468 | -59.35616 | 35628 ft | 436 kts | 249° |
| 2026-05-05 19:00 | 51.41894 | -59.44413 | 35611 ft | 435 kts | 249° |
| 2026-05-05 19:00 | 51.39315 | -59.53192 | 35629 ft | 436 kts | 249° |
| 2026-05-05 19:01 | 51.36742 | -59.61921 | 35632 ft | 437 kts | 249° |
| 2026-05-05 19:01 | 51.34121 | -59.70782 | 35634 ft | 439 kts | 248° |
| 2026-05-05 19:02 | 51.31500 | -59.79606 | 35635 ft | 440 kts | 248° |
| 2026-05-05 19:02 | 51.28867 | -59.88437 | 35630 ft | 440 kts | 248° |
| 2026-05-05 19:03 | 51.26230 | -59.97253 | 35637 ft | 440 kts | 248° |
| 2026-05-05 19:03 | 51.23601 | -60.06006 | 35640 ft | 440 kts | 248° |
| 2026-05-05 19:04 | 51.20950 | -60.14806 | 35656 ft | 441 kts | 248° |
| 2026-05-05 19:04 | 51.18283 | -60.23625 | 35635 ft | 441 kts | 248° |
| 2026-05-05 19:05 | 51.15614 | -60.32414 | 35658 ft | 441 kts | 248° |
| 2026-05-05 19:05 | 51.12935 | -60.41207 | 35646 ft | 441 kts | 247° |
| 2026-05-05 19:06 | 51.10256 | -60.49969 | 35653 ft | 441 kts | 247° |
| 2026-05-05 19:06 | 51.07566 | -60.58736 | 35653 ft | 441 kts | 247° |
| 2026-05-05 19:07 | 51.04873 | -60.67482 | 35666 ft | 441 kts | 247° |
| 2026-05-05 19:07 | 51.02166 | -60.76242 | 35664 ft | 441 kts | 247° |
| 2026-05-05 19:08 | 50.99450 | -60.84996 | 35672 ft | 441 kts | 247° |
| 2026-05-05 19:08 | 50.96737 | -60.93712 | 35674 ft | 441 kts | 247° |
| 2026-05-05 19:09 | 50.94018 | -61.02416 | 35675 ft | 440 kts | 247° |
| 2026-05-05 19:09 | 50.91295 | -61.11098 | 35671 ft | 440 kts | 247° |
| 2026-05-05 19:10 | 50.88569 | -61.19762 | 35678 ft | 439 kts | 246° |
| 2026-05-05 19:10 | 50.85845 | -61.28391 | 35674 ft | 437 kts | 247° |
| 2026-05-05 19:11 | 50.83125 | -61.36975 | 35680 ft | 435 kts | 247° |
| 2026-05-05 19:11 | 50.80410 | -61.45515 | 35684 ft | 434 kts | 246° |
| 2026-05-05 19:12 | 50.77700 | -61.54009 | 35678 ft | 432 kts | 246° |
| 2026-05-05 19:12 | 50.74991 | -61.62471 | 35682 ft | 432 kts | 246° |
| 2026-05-05 19:13 | 50.72276 | -61.70928 | 35676 ft | 431 kts | 246° |
| 2026-05-05 19:13 | 50.69562 | -61.79348 | 35681 ft | 430 kts | 246° |
| 2026-05-05 19:14 | 50.66853 | -61.87720 | 35699 ft | 427 kts | 246° |
| 2026-05-05 19:14 | 50.64153 | -61.96042 | 35686 ft | 425 kts | 246° |
| 2026-05-05 19:15 | 50.61461 | -62.04309 | 35685 ft | 423 kts | 246° |
| 2026-05-05 19:15 | 50.58774 | -62.12537 | 35696 ft | 422 kts | 246° |
| 2026-05-05 19:16 | 50.56088 | -62.20731 | 35678 ft | 421 kts | 246° |
| 2026-05-05 19:16 | 50.53421 | -62.28843 | 35690 ft | 420 kts | 246° |
| 2026-05-05 19:17 | 50.50735 | -62.36989 | 35692 ft | 420 kts | 246° |
| 2026-05-05 19:17 | 50.48036 | -62.45144 | 35691 ft | 421 kts | 245° |
| 2026-05-05 19:18 | 50.45332 | -62.53291 | 35683 ft | 421 kts | 245° |
| 2026-05-05 19:18 | 50.42614 | -62.61448 | 35668 ft | 422 kts | 245° |
| 2026-05-05 19:19 | 50.39891 | -62.69597 | 35691 ft | 421 kts | 245° |
| 2026-05-05 19:19 | 50.37167 | -62.77719 | 35680 ft | 420 kts | 245° |
| 2026-05-05 19:20 | 50.34448 | -62.85802 | 35672 ft | 419 kts | 245° |
| 2026-05-05 19:20 | 50.31733 | -62.93851 | 35666 ft | 418 kts | 245° |
| 2026-05-05 19:21 | 50.29457 | -63.00575 | 35671 ft | 417 kts | 245° |
| 2026-05-05 19:21 | 50.26736 | -63.08592 | 35674 ft | 417 kts | 245° |
| 2026-05-05 19:22 | 50.24015 | -63.16585 | 35663 ft | 417 kts | 245° |
| 2026-05-05 19:22 | 50.21309 | -63.24507 | 35660 ft | 417 kts | 245° |
| 2026-05-05 19:23 | 50.18576 | -63.32487 | 35658 ft | 417 kts | 245° |
| 2026-05-05 19:23 | 50.15834 | -63.40465 | 35658 ft | 417 kts | 245° |
| 2026-05-05 19:24 | 50.13083 | -63.48445 | 35645 ft | 418 kts | 244° |
| 2026-05-05 19:24 | 50.10327 | -63.56412 | 35649 ft | 418 kts | 244° |
| 2026-05-05 19:25 | 50.07567 | -63.64365 | 35645 ft | 417 kts | 244° |
| 2026-05-05 19:25 | 50.04803 | -63.72308 | 35644 ft | 417 kts | 244° |
| 2026-05-05 19:26 | 50.02033 | -63.80244 | 35636 ft | 417 kts | 244° |
| 2026-05-05 19:26 | 49.99261 | -63.88159 | 35616 ft | 417 kts | 243° |
| 2026-05-05 19:27 | 49.96487 | -63.96055 | 35635 ft | 416 kts | 243° |
| 2026-05-05 19:27 | 49.93709 | -64.03940 | 35633 ft | 416 kts | 243° |
| 2026-05-05 19:28 | 49.90926 | -64.11815 | 35622 ft | 416 kts | 243° |
| 2026-05-05 19:28 | 49.88140 | -64.19673 | 35640 ft | 416 kts | 243° |
| 2026-05-05 19:29 | 49.85346 | -64.27529 | 35640 ft | 416 kts | 243° |
| 2026-05-05 19:29 | 49.82549 | -64.35369 | 35619 ft | 416 kts | 243° |
| 2026-05-05 19:30 | 49.79749 | -64.43197 | 35624 ft | 415 kts | 242° |
| 2026-05-05 19:30 | 49.76968 | -64.50945 | 35603 ft | 415 kts | 242° |
| 2026-05-05 19:31 | 49.74164 | -64.58734 | 35600 ft | 415 kts | 242° |
| 2026-05-05 19:31 | 49.71352 | -64.66522 | 35589 ft | 415 kts | 242° |
| 2026-05-05 19:32 | 49.68540 | -64.74290 | 35588 ft | 414 kts | 242° |
| 2026-05-05 19:32 | 49.65720 | -64.82052 | 35588 ft | 414 kts | 242° |
| 2026-05-05 19:33 | 49.62895 | -64.89806 | 35585 ft | 414 kts | 242° |
| 2026-05-05 19:33 | 49.60066 | -64.97549 | 35584 ft | 415 kts | 242° |
| 2026-05-05 19:34 | 49.57231 | -65.05285 | 35575 ft | 414 kts | 242° |
| 2026-05-05 19:35 | 49.52976 | -65.16851 | 35578 ft | 413 kts | 242° |
| 2026-05-05 19:35 | 49.50135 | -65.24546 | 35573 ft | 412 kts | 242° |
| 2026-05-05 19:36 | 49.47300 | -65.32202 | 35574 ft | 412 kts | 242° |
| 2026-05-05 19:36 | 49.44462 | -65.39842 | 35574 ft | 411 kts | 242° |
| 2026-05-05 19:37 | 49.41621 | -65.47471 | 35571 ft | 411 kts | 241° |
| 2026-05-05 19:37 | 49.38779 | -65.55078 | 35561 ft | 411 kts | 242° |
| 2026-05-05 19:38 | 49.35931 | -65.62678 | 35558 ft | 411 kts | 241° |
| 2026-05-05 19:38 | 49.33074 | -65.70283 | 35569 ft | 411 kts | 241° |
| 2026-05-05 19:39 | 49.30216 | -65.77868 | 35573 ft | 412 kts | 241° |
| 2026-05-05 19:39 | 49.27365 | -65.85412 | 35556 ft | 411 kts | 241° |
| 2026-05-05 19:40 | 49.24497 | -65.92977 | 35546 ft | 410 kts | 241° |
| 2026-05-05 19:40 | 49.21637 | -66.00499 | 35557 ft | 408 kts | 241° |
| 2026-05-05 19:41 | 49.18784 | -66.07985 | 35564 ft | 407 kts | 241° |
| 2026-05-05 19:41 | 49.15926 | -66.15461 | 35564 ft | 407 kts | 241° |
| 2026-05-05 19:42 | 49.13064 | -66.22926 | 35555 ft | 407 kts | 240° |
| 2026-05-05 19:42 | 49.10202 | -66.30372 | 35555 ft | 408 kts | 240° |
| 2026-05-05 19:43 | 49.07326 | -66.37831 | 35548 ft | 407 kts | 240° |
| 2026-05-05 19:43 | 49.04449 | -66.45271 | 35550 ft | 407 kts | 240° |
| 2026-05-05 19:44 | 49.01568 | -66.52702 | 35557 ft | 407 kts | 240° |
| 2026-05-05 19:44 | 48.98683 | -66.60120 | 35546 ft | 406 kts | 240° |
| 2026-05-05 19:45 | 48.95797 | -66.67520 | 35544 ft | 406 kts | 239° |
| 2026-05-05 19:45 | 48.92914 | -66.74891 | 35544 ft | 405 kts | 239° |
| 2026-05-05 19:46 | 48.90035 | -66.82238 | 35540 ft | 404 kts | 239° |
| 2026-05-05 19:46 | 48.87158 | -66.89556 | 35544 ft | 404 kts | 239° |
| 2026-05-05 19:47 | 48.84266 | -66.96889 | 35549 ft | 404 kts | 239° |
| 2026-05-05 19:47 | 48.81370 | -67.04215 | 35551 ft | 405 kts | 239° |
| 2026-05-05 19:48 | 48.78463 | -67.11547 | 35548 ft | 405 kts | 239° |
| 2026-05-05 19:48 | 48.75575 | -67.18812 | 35551 ft | 406 kts | 239° |
| 2026-05-05 19:49 | 48.72660 | -67.26124 | 35551 ft | 406 kts | 239° |
| 2026-05-05 19:49 | 48.69739 | -67.33431 | 35554 ft | 405 kts | 239° |
| 2026-05-05 19:50 | 48.66816 | -67.40724 | 35548 ft | 405 kts | 239° |
| 2026-05-05 19:50 | 48.63890 | -67.48004 | 35557 ft | 405 kts | 239° |
| 2026-05-05 19:51 | 48.60962 | -67.55269 | 35561 ft | 405 kts | 239° |
| 2026-05-05 19:51 | 48.58022 | -67.62543 | 35560 ft | 405 kts | 239° |
| 2026-05-05 19:52 | 48.55084 | -67.69794 | 35564 ft | 405 kts | 239° |
| 2026-05-05 19:52 | 48.52139 | -67.77041 | 35560 ft | 405 kts | 239° |
| 2026-05-05 19:53 | 48.49189 | -67.84282 | 35573 ft | 405 kts | 239° |
| 2026-05-05 19:53 | 48.46226 | -67.91534 | 35565 ft | 406 kts | 239° |
| 2026-05-05 19:54 | 48.43260 | -67.98777 | 35568 ft | 407 kts | 238° |
| 2026-05-05 19:54 | 48.40286 | -68.06017 | 35567 ft | 407 kts | 238° |
| 2026-05-05 19:55 | 48.37297 | -68.13276 | 35583 ft | 408 kts | 238° |
| 2026-05-05 19:55 | 48.34301 | -68.20530 | 35560 ft | 409 kts | 238° |
| 2026-05-05 19:56 | 48.31322 | -68.27724 | 35568 ft | 408 kts | 238° |
| 2026-05-05 19:56 | 48.28323 | -68.34948 | 35578 ft | 408 kts | 238° |
| 2026-05-05 19:57 | 48.25315 | -68.42175 | 35586 ft | 408 kts | 238° |
| 2026-05-05 19:57 | 48.22305 | -68.49384 | 35577 ft | 408 kts | 238° |
| 2026-05-05 19:58 | 48.19287 | -68.56596 | 35578 ft | 408 kts | 238° |
| 2026-05-05 19:58 | 48.16266 | -68.63797 | 35575 ft | 408 kts | 238° |
| 2026-05-05 19:59 | 48.13243 | -68.70980 | 35588 ft | 407 kts | 238° |
| 2026-05-05 19:59 | 48.10222 | -68.78141 | 35579 ft | 407 kts | 238° |
| 2026-05-05 20:00 | 48.07201 | -68.85283 | 35582 ft | 406 kts | 238° |
| 2026-05-05 20:00 | 48.04176 | -68.92416 | 35585 ft | 406 kts | 238° |
| 2026-05-05 20:01 | 48.01146 | -68.99542 | 35563 ft | 406 kts | 238° |
| 2026-05-05 20:01 | 47.98116 | -69.06648 | 35571 ft | 405 kts | 238° |
| 2026-05-05 20:02 | 47.95085 | -69.13741 | 35584 ft | 405 kts | 238° |
| 2026-05-05 20:02 | 47.92056 | -69.20808 | 35589 ft | 405 kts | 238° |
| 2026-05-05 20:03 | 47.89013 | -69.27891 | 35616 ft | 406 kts | 237° |
| 2026-05-05 20:03 | 47.85965 | -69.34967 | 35547 ft | 406 kts | 237° |
| 2026-05-05 20:04 | 47.82914 | -69.42033 | 35577 ft | 405 kts | 238° |
| 2026-05-05 20:04 | 47.79866 | -69.49076 | 35587 ft | 404 kts | 238° |
| 2026-05-05 20:05 | 47.76818 | -69.56096 | 35573 ft | 404 kts | 237° |
| 2026-05-05 20:05 | 47.73402 | -69.62742 | 35584 ft | 405 kts | 230° |
| 2026-05-05 20:06 | 47.69694 | -69.69033 | 35565 ft | 406 kts | 231° |
| 2026-05-05 20:06 | 47.65991 | -69.75354 | 35576 ft | 406 kts | 231° |
| 2026-05-05 20:07 | 47.62282 | -69.81686 | 35586 ft | 406 kts | 231° |
| 2026-05-05 20:07 | 47.58577 | -69.87997 | 35577 ft | 407 kts | 231° |
| 2026-05-05 20:08 | 47.54854 | -69.94324 | 35583 ft | 407 kts | 231° |
| 2026-05-05 20:08 | 47.51760 | -69.99571 | 35601 ft | 407 kts | 231° |
| 2026-05-05 20:09 | 47.47425 | -70.06904 | 35587 ft | 407 kts | 231° |
| 2026-05-05 20:09 | 47.43705 | -70.13181 | 35583 ft | 406 kts | 231° |
| 2026-05-05 20:10 | 47.40610 | -70.18392 | 35591 ft | 406 kts | 231° |
| 2026-05-05 20:10 | 47.36890 | -70.24642 | 35588 ft | 405 kts | 231° |
| 2026-05-05 20:11 | 47.33174 | -70.30871 | 35587 ft | 404 kts | 231° |
| 2026-05-05 20:11 | 47.29456 | -70.37090 | 35590 ft | 404 kts | 231° |
| 2026-05-05 20:12 | 47.25729 | -70.43309 | 35588 ft | 405 kts | 231° |
| 2026-05-05 20:12 | 47.21997 | -70.49522 | 35602 ft | 405 kts | 231° |
| 2026-05-05 20:13 | 47.18254 | -70.55739 | 35597 ft | 406 kts | 231° |
| 2026-05-05 20:13 | 47.14505 | -70.61950 | 35597 ft | 406 kts | 231° |
| 2026-05-05 20:14 | 47.10757 | -70.68148 | 35594 ft | 406 kts | 231° |
| 2026-05-05 20:14 | 47.06996 | -70.74351 | 35595 ft | 406 kts | 230° |
| 2026-05-05 20:15 | 47.03236 | -70.80539 | 35613 ft | 407 kts | 231° |
| 2026-05-05 20:15 | 46.99461 | -70.86736 | 35599 ft | 407 kts | 231° |
| 2026-05-05 20:16 | 46.95696 | -70.92905 | 35606 ft | 406 kts | 231° |
| 2026-05-05 20:16 | 46.91949 | -70.99029 | 35604 ft | 406 kts | 231° |
| 2026-05-05 20:17 | 46.88156 | -71.05214 | 35605 ft | 406 kts | 231° |
| 2026-05-05 20:17 | 46.84405 | -71.11318 | 35607 ft | 406 kts | 230° |
| 2026-05-05 20:18 | 46.80629 | -71.17448 | 35609 ft | 406 kts | 230° |
| 2026-05-05 20:18 | 46.76860 | -71.23553 | 35607 ft | 406 kts | 230° |
| 2026-05-05 20:19 | 46.73082 | -71.29659 | 35560 ft | 406 kts | 230° |
| 2026-05-05 20:19 | 46.69304 | -71.35753 | 35553 ft | 400 kts | 230° |
| 2026-05-05 20:19 | 46.67455 | -71.38730 | 35333 ft | 393 kts | 230° |
| 2026-05-05 20:20 | 46.65633 | -71.41659 | 34970 ft | 387 kts | 230° |
| 2026-05-05 20:20 | 46.63823 | -71.44533 | 34489 ft | 384 kts | 228° |
| 2026-05-05 20:20 | 46.61955 | -71.47300 | 33966 ft | 382 kts | 227° |
| 2026-05-05 20:20 | 46.60071 | -71.50000 | 33465 ft | 380 kts | 226° |
| 2026-05-05 20:21 | 46.58182 | -71.52689 | 32907 ft | 380 kts | 227° |
| 2026-05-05 20:21 | 46.56305 | -71.55373 | 32361 ft | 377 kts | 227° |
| 2026-05-05 20:21 | 46.54446 | -71.58043 | 31858 ft | 374 kts | 227° |
| 2026-05-05 20:21 | 46.52606 | -71.60697 | 31348 ft | 371 kts | 227° |
| 2026-05-05 20:22 | 46.50787 | -71.63323 | 30812 ft | 368 kts | 227° |
| 2026-05-05 20:22 | 46.48985 | -71.65924 | 30355 ft | 365 kts | 227° |
| 2026-05-05 20:22 | 46.47186 | -71.68521 | 29861 ft | 362 kts | 228° |
| 2026-05-05 20:22 | 46.45404 | -71.71091 | 29327 ft | 360 kts | 228° |
| 2026-05-05 20:23 | 46.43642 | -71.73632 | 28794 ft | 357 kts | 228° |
| 2026-05-05 20:23 | 46.41885 | -71.76161 | 28299 ft | 354 kts | 227° |
| 2026-05-05 20:23 | 46.40151 | -71.78652 | 27810 ft | 350 kts | 227° |
| 2026-05-05 20:23 | 46.38423 | -71.81119 | 27366 ft | 347 kts | 227° |
| 2026-05-05 20:24 | 46.36680 | -71.83540 | 26982 ft | 345 kts | 226° |
| 2026-05-05 20:24 | 46.34940 | -71.85935 | 26604 ft | 346 kts | 226° |
| 2026-05-05 20:24 | 46.33192 | -71.88337 | 26191 ft | 348 kts | 226° |
| 2026-05-05 20:24 | 46.31442 | -71.90744 | 25813 ft | 349 kts | 226° |
| 2026-05-05 20:25 | 46.29684 | -71.93162 | 25417 ft | 348 kts | 226° |
| 2026-05-05 20:25 | 46.27935 | -71.95569 | 25029 ft | 347 kts | 226° |
| 2026-05-05 20:25 | 46.26189 | -71.97972 | 24647 ft | 345 kts | 226° |
| 2026-05-05 20:25 | 46.24454 | -72.00356 | 24252 ft | 344 kts | 226° |
| 2026-05-05 20:26 | 46.22722 | -72.02733 | 23859 ft | 340 kts | 226° |
| 2026-05-05 20:26 | 46.21016 | -72.05071 | 23476 ft | 336 kts | 226° |
| 2026-05-05 20:26 | 46.19334 | -72.07373 | 23086 ft | 332 kts | 226° |
| 2026-05-05 20:26 | 46.17669 | -72.09650 | 22661 ft | 328 kts | 226° |
| 2026-05-05 20:27 | 46.16031 | -72.11888 | 22258 ft | 323 kts | 226° |
| 2026-05-05 20:27 | 46.14407 | -72.14106 | 21900 ft | 320 kts | 226° |
| 2026-05-05 20:27 | 46.12792 | -72.16312 | 21545 ft | 322 kts | 226° |
| 2026-05-05 20:27 | 46.11159 | -72.18541 | 21182 ft | 325 kts | 226° |
| 2026-05-05 20:28 | 46.09515 | -72.20784 | 20811 ft | 325 kts | 226° |
| 2026-05-05 20:28 | 46.07873 | -72.23019 | 20442 ft | 323 kts | 225° |
| 2026-05-05 20:28 | 46.06268 | -72.25203 | 20160 ft | 321 kts | 225° |
| 2026-05-05 20:28 | 46.04651 | -72.27401 | 19901 ft | 318 kts | 225° |
| 2026-05-05 20:29 | 46.03052 | -72.29573 | 19637 ft | 316 kts | 225° |
| 2026-05-05 20:29 | 46.01459 | -72.31737 | 19348 ft | 314 kts | 225° |
| 2026-05-05 20:29 | 45.99853 | -72.33916 | 18979 ft | 312 kts | 225° |
| 2026-05-05 20:29 | 45.98301 | -72.36019 | 18647 ft | 309 kts | 225° |
| 2026-05-05 20:30 | 45.96740 | -72.38132 | 18310 ft | 307 kts | 225° |
| 2026-05-05 20:30 | 45.95217 | -72.40266 | 17974 ft | 305 kts | 230° |
| 2026-05-05 20:30 | 45.94049 | -72.42780 | 17597 ft | 303 kts | 241° |
| 2026-05-05 20:30 | 45.93082 | -72.45452 | 17237 ft | 301 kts | 241° |
| 2026-05-05 20:31 | 45.92117 | -72.48105 | 16882 ft | 298 kts | 241° |
| 2026-05-05 20:31 | 45.91156 | -72.50729 | 16536 ft | 296 kts | 241° |
| 2026-05-05 20:31 | 45.90198 | -72.53328 | 16209 ft | 295 kts | 241° |
| 2026-05-05 20:31 | 45.89235 | -72.55929 | 15857 ft | 293 kts | 241° |
| 2026-05-05 20:32 | 45.88279 | -72.58504 | 15544 ft | 292 kts | 241° |
| 2026-05-05 20:32 | 45.87325 | -72.61063 | 15228 ft | 291 kts | 241° |
| 2026-05-05 20:32 | 45.86372 | -72.63616 | 14902 ft | 290 kts | 241° |
| 2026-05-05 20:32 | 45.85421 | -72.66163 | 14574 ft | 290 kts | 241° |
| 2026-05-05 20:33 | 45.84469 | -72.68708 | 14246 ft | 289 kts | 241° |
| 2026-05-05 20:33 | 45.83520 | -72.71244 | 13915 ft | 289 kts | 241° |
| 2026-05-05 20:33 | 45.82567 | -72.73785 | 13599 ft | 289 kts | 241° |
| 2026-05-05 20:33 | 45.81611 | -72.76327 | 13251 ft | 289 kts | 241° |
| 2026-05-05 20:34 | 45.80660 | -72.78859 | 12899 ft | 289 kts | 241° |
| 2026-05-05 20:34 | 45.79702 | -72.81401 | 12558 ft | 289 kts | 241° |
| 2026-05-05 20:34 | 45.78746 | -72.83936 | 12205 ft | 289 kts | 241° |
| 2026-05-05 20:34 | 45.77796 | -72.86452 | 11884 ft | 287 kts | 241° |
| 2026-05-05 20:35 | 45.76846 | -72.88967 | 11569 ft | 285 kts | 241° |
| 2026-05-05 20:35 | 45.75910 | -72.91445 | 11257 ft | 280 kts | 241° |
| 2026-05-05 20:35 | 45.75002 | -72.93846 | 10939 ft | 276 kts | 242° |
| 2026-05-05 20:35 | 45.74095 | -72.96241 | 10620 ft | 271 kts | 241° |
| 2026-05-05 20:36 | 45.73202 | -72.98596 | 10313 ft | 267 kts | 242° |
| 2026-05-05 20:36 | 45.72326 | -73.00915 | 10019 ft | 262 kts | 243° |
| 2026-05-05 20:36 | 45.71756 | -73.03375 | 9852 ft | 253 kts | 258° |
| 2026-05-05 20:36 | 45.71523 | -73.05792 | 9664 ft | 242 kts | 258° |
| 2026-05-05 20:37 | 45.71288 | -73.08107 | 9220 ft | 230 kts | 258° |
| 2026-05-05 20:37 | 45.71055 | -73.10332 | 8924 ft | 226 kts | 258° |
| 2026-05-05 20:37 | 45.70808 | -73.12580 | 8633 ft | 231 kts | 256° |
| 2026-05-05 20:37 | 45.70443 | -73.14825 | 8365 ft | 231 kts | 253° |
| 2026-05-05 20:38 | 45.70034 | -73.17040 | 8088 ft | 230 kts | 253° |
| 2026-05-05 20:38 | 45.69624 | -73.19240 | 7830 ft | 228 kts | 253° |
| 2026-05-05 20:38 | 45.69219 | -73.21423 | 7568 ft | 226 kts | 253° |
| 2026-05-05 20:38 | 45.68825 | -73.23559 | 7432 ft | 216 kts | 253° |
| 2026-05-05 20:39 | 45.68456 | -73.25566 | 7336 ft | 203 kts | 253° |
| 2026-05-05 20:39 | 45.68102 | -73.27498 | 7303 ft | 199 kts | 253° |
| 2026-05-05 20:39 | 45.67756 | -73.29382 | 7244 ft | 192 kts | 253° |
| 2026-05-05 20:39 | 45.67425 | -73.31191 | 7125 ft | 184 kts | 253° |
| 2026-05-05 20:40 | 45.67105 | -73.32934 | 7060 ft | 178 kts | 253° |
| 2026-05-05 20:40 | 45.66795 | -73.34626 | 7015 ft | 177 kts | 253° |
| 2026-05-05 20:40 | 45.66479 | -73.36341 | 6686 ft | 180 kts | 254° |
| 2026-05-05 20:40 | 45.66162 | -73.38071 | 6315 ft | 179 kts | 254° |
| 2026-05-05 20:41 | 45.65849 | -73.39779 | 5941 ft | 175 kts | 254° |
| 2026-05-05 20:41 | 45.65543 | -73.41443 | 5556 ft | 172 kts | 254° |
| 2026-05-05 20:41 | 45.65241 | -73.43091 | 5195 ft | 173 kts | 254° |
| 2026-05-05 20:41 | 45.64933 | -73.44768 | 4878 ft | 176 kts | 255° |
| 2026-05-05 20:42 | 45.64616 | -73.46485 | 4566 ft | 180 kts | 255° |
| 2026-05-05 20:42 | 45.64295 | -73.48228 | 4246 ft | 182 kts | 255° |
| 2026-05-05 20:42 | 45.63973 | -73.49978 | 3913 ft | 183 kts | 254° |
| 2026-05-05 20:42 | 45.63650 | -73.51727 | 3581 ft | 182 kts | 254° |
| 2026-05-05 20:43 | 45.63171 | -73.53371 | 3220 ft | 180 kts | 234° |
| 2026-05-05 20:43 | 45.62381 | -73.54676 | 3076 ft | 169 kts | 233° |
| 2026-05-05 20:43 | 45.61597 | -73.55970 | 3038 ft | 174 kts | 231° |
| 2026-05-05 20:43 | 45.60762 | -73.57193 | 3004 ft | 169 kts | 229° |
| 2026-05-05 20:44 | 45.59935 | -73.58320 | 2983 ft | 161 kts | 227° |
| 2026-05-05 20:44 | 45.59128 | -73.59394 | 2970 ft | 159 kts | 227° |
| 2026-05-05 20:44 | 45.58306 | -73.60482 | 2753 ft | 161 kts | 226° |
| 2026-05-05 20:44 | 45.57500 | -73.61543 | 2532 ft | 153 kts | 226° |
| 2026-05-05 20:45 | 45.56039 | -73.63462 | 2171 ft | 136 kts | 226° |
| 2026-05-05 20:45 | 45.55352 | -73.64368 | 1972 ft | 134 kts | 225° |
| 2026-05-05 20:45 | 45.54671 | -73.65264 | 1806 ft | 132 kts | 225° |
| 2026-05-05 20:46 | 45.54002 | -73.66142 | 1628 ft | 133 kts | 226° |
| 2026-05-05 20:46 | 45.53325 | -73.67033 | 1453 ft | 131 kts | 226° |
| 2026-05-05 20:46 | 45.52662 | -73.67905 | 1277 ft | 128 kts | 224° |
| 2026-05-05 20:46 | 45.51996 | -73.68778 | 1118 ft | 132 kts | 225° |
| 2026-05-05 20:47 | 45.51309 | -73.69682 | 943 ft | 136 kts | 224° |
| 2026-05-05 20:47 | 45.50616 | -73.70601 | 782 ft | 139 kts | 224° |
| 2026-05-05 20:47 | 45.49902 | -73.71555 | 639 ft | 139 kts | 223° |
| 2026-05-05 20:47 | 45.49190 | -73.72454 | 421 ft | 134 kts | 226° |
| 2026-05-05 20:48 | 45.48508 | -73.73355 | 224 ft | 131 kts | 224° |
| 2026-05-05 20:48 | 45.47866 | -73.74203 | 122 ft | 120 kts | 224° |
| 2026-05-05 20:48 | 45.47326 | -73.74919 | 115 ft | 85 kts | 223° |
| 2026-05-05 20:48 | 45.47001 | -73.75340 | 111 ft | 41 kts | 223° |
| 2026-05-05 20:49 | 45.46838 | -73.75528 | 110 ft | 26 kts | 205° |
| 2026-05-05 20:49 | 45.46669 | -73.75613 | 109 ft | 26 kts | 196° |
| 2026-05-05 20:49 | 45.46518 | -73.75659 | 110 ft | 18 kts | 192° |
| 2026-05-05 20:49 | 45.46398 | -73.75696 | 109 ft | 18 kts | 192° |
| 2026-05-05 20:50 | 45.46286 | -73.75725 | 109 ft | 14 kts | 185° |
| 2026-05-05 20:50 | 45.46220 | -73.75724 | 108 ft | 14 kts | 177° |
| 2026-05-05 20:50 | 45.46116 | -73.75721 | 107 ft | 10 kts | 178° |
| 2026-05-05 20:50 | 45.46068 | -73.75667 | 109 ft | 10 kts | 105° |
| 2026-05-05 20:51 | 45.46064 | -73.75572 | 109 ft | 10 kts | 89° |
| 2026-05-05 20:51 | 45.46065 | -73.75476 | 109 ft | 10 kts | 89° |
| 2026-05-05 20:51 | 45.46062 | -73.75379 | 109 ft | 10 kts | 98° |
| 2026-05-05 20:51 | 45.46032 | -73.75291 | 110 ft | 9 kts | 118° |
| 2026-05-05 20:52 | 45.46013 | -73.75219 | 110 ft | 7 kts | 102° |
| 2026-05-05 20:52 | 45.46002 | -73.75164 | 110 ft | 6 kts | 130° |
| 2026-05-05 20:52 | 45.45961 | -73.75143 | 110 ft | 6 kts | 172° |
| 2026-05-05 20:52 | 45.45937 | -73.75139 | 110 ft | 0 kts | 175° |